Data for 10/02/2009

Time Sea-Level Adjusted Pressure Absolute Pressure Temperature Relative Humidity Dew Point Precipitation   
(mb) (inHg) (mb) (inHg) (C) (F) (%) (C) (F) (mm) (in)
00:01 1024 30.24 853 25.19 2 35.6 72 -2.5 27.5 2.4 0.094
00:02 1024 30.24 853 25.19 2.1 35.7 72 -2.5 27.5 2.456 0.097
00:03 1024 30.24 853 25.19 2.2 35.9 71 -2.5 27.5 2.507 0.099
00:04 1024 30.24 853 25.19 2.2 35.9 70 -2.8 27 2.541 0.1
00:05 1024 30.24 853 25.19 2.3 36.1 70 -2.7 27.1 2.632 0.104
00:06 1024 30.24 853 25.19 2.3 36.2 69 -2.8 27 2.694 0.106
00:07 1024 30.24 853 25.19 2.4 36.3 69 -2.8 27 2.722 0.107
00:08 1024 30.24 853 25.19 2.4 36.3 68 -3 26.7 2.79 0.11
00:09 1024 30.24 853 25.19 2.5 36.5 67 -3.1 26.5 2.858 0.113
00:10 1024 30.24 853 25.19 2.6 36.7 64 -3.5 25.7 2.92 0.115
00:11 1024 30.24 853 25.19 2.7 36.9 63 -3.7 25.4 3.045 0.12
00:12 1024 30.24 853 25.19 2.8 37.1 64 -3.4 25.9 3.147 0.124
00:13 1024 30.24 853 25.19 2.9 37.1 63 -3.5 25.7 3.214 0.127
00:14 1024 30.24 853 25.19 2.9 37.3 62 -3.6 25.6 3.311 0.13
00:15 1024 30.24 853 25.19 3 37.3 62 -3.6 25.6 3.339 0.131
00:16 1024 30.24 853 25.19 3 37.4 62 -3.5 25.6 3.407 0.134
00:17 1024 30.24 853 25.19 3.1 37.5 62 -3.6 25.6 3.435 0.135
00:18 1024 30.24 853 25.19 3.1 37.5 62 -3.6 25.5 3.418 0.135
00:19 1024 30.24 853 25.19 3 37.4 62 -3.6 25.6 3.446 0.136
00:20 1024 30.24 853 25.19 3 37.4 63 -3.4 25.9 3.441 0.135
00:21 1024 30.24 853 25.19 3 37.5 63 -3.3 26.1 3.413 0.134
00:22 1024 30.24 853 25.19 2.9 37.3 62 -3.6 25.5 3.396 0.134
00:23 1024 30.24 853 25.19 3 37.3 62 -3.5 25.7 3.362 0.132
00:24 1024 30.24 853 25.19 3 37.4 63 -3.3 26 3.367 0.133
00:25 1024 30.24 853 25.19 3 37.3 61 -3.8 25.2 3.39 0.133
00:26 1024 30.24 853 25.19 3.1 37.5 60 -3.9 25.1 3.401 0.134
00:27 1024 30.24 853 25.19 3.1 37.6 61 -3.7 25.4 3.492 0.137
00:28 1024 30.24 853 25.19 3.1 37.6 62 -3.5 25.7 3.492 0.137
00:29 1024 30.24 853 25.19 3.1 37.6 62 -3.5 25.7 3.475 0.137
00:30 1024 30.24 853 25.19 3 37.5 62 -3.6 25.5 3.463 0.136
00:31 1024 30.24 853 25.19 3 37.5 63 -3.4 25.9 3.435 0.135
00:32 1024 30.24 853 25.19 3 37.4 63 -3.3 26.1 3.407 0.134
00:33 1024 30.24 853 25.19 2.9 37.3 64 -3.3 26.1 3.379 0.133
00:34 1024 30.24 853 25.19 2.9 37.3 63 -3.3 26 3.356 0.132
00:35 1024 30.24 853 25.19 2.9 37.3 63 -3.5 25.7 3.299 0.13
00:36 1024 30.24 853 25.19 2.9 37.3 63 -3.5 25.7 3.333 0.131
00:37 1024 30.24 853 25.19 2.9 37.3 62 -3.6 25.5 3.339 0.131
00:38 1024 30.24 853 25.19 2.9 37.3 63 -3.4 25.9 3.333 0.131
00:39 1024 30.24 853 25.19 2.9 37.2 64 -3.4 25.9 3.328 0.131
00:40 1024 30.24 853 25.19 2.8 37.1 64 -3.3 26.1 3.277 0.129
00:41 1024 30.24 853 25.19 2.8 37 65 -3.1 26.3 3.231 0.127
00:42 1024 30.24 853 25.19 2.7 36.9 64 -3.4 25.9 3.175 0.125
00:43 1024 30.24 853 25.19 2.7 36.9 65 -3.2 26.3 3.169 0.125
00:44 1024 30.24 853 25.19 2.7 36.9 64 -3.4 25.9 3.124 0.123
00:45 1024 30.24 853 25.19 2.7 36.9 64 -3.4 25.8 3.118 0.123
00:46 1024 30.24 853 25.19 2.7 36.9 65 -3.3 26.1 3.107 0.122
00:47 1024 30.24 853 25.19 2.7 36.9 64 -3.4 25.9 3.124 0.123
00:48 1024 30.24 853 25.19 2.7 36.9 64 -3.4 25.9 3.13 0.123
00:49 1024 30.24 853 25.19 2.6 36.8 65 -3.3 26 3.113 0.123
00:50 1024 30.24 853 25.19 2.7 36.8 65 -3.2 26.3 3.084 0.121
00:51 1024 30.24 853 25.19 2.6 36.7 65 -3.2 26.2 3.056 0.12
00:52 1024 30.24 853 25.19 2.6 36.7 66 -3.2 26.2 2.994 0.118
00:53 1024 30.24 853 25.19 2.6 36.6 65 -3.2 26.2 2.977 0.117
00:54 1024 30.24 853 25.19 2.6 36.6 65 -3.4 26 2.954 0.116
00:55 1024 30.24 853 25.19 2.5 36.5 65 -3.4 25.9 2.937 0.116
00:56 1024 30.24 853 25.19 2.6 36.6 65 -3.4 25.9 2.971 0.117
00:57 1024 30.24 853 25.19 2.6 36.6 65 -3.3 26 2.977 0.117
00:58 1024 30.24 853 25.19 2.6 36.6 66 -3.2 26.2 2.954 0.116
00:59 1024 30.24 853 25.19 2.5 36.6 66 -3.2 26.2 2.954 0.116
01:00 1024 30.24 853 25.19 2.5 36.5 67 -3 26.6 2.96 0.117
01:01 1024 30.24 853 25.19 2.4 36.4 68 -2.8 26.9 2.875 0.113
01:02 1024 30.24 853 25.19 2.3 36.2 69 -2.8 26.9 2.824 0.111
01:03 1024 30.24 853 25.19 2.3 36.1 69 -2.8 26.9 2.728 0.107
01:04 1024 30.24 853 25.19 2.2 36 69 -2.9 26.9 2.66 0.105
01:05 1024 30.24 853 25.19 2.2 35.9 69 -2.8 26.9 2.626 0.103
01:06 1024 30.24 853 25.19 2.2 35.9 70 -2.8 26.9 2.598 0.102
01:07 1024 30.24 853 25.19 2.2 35.9 67 -3.3 26.1 2.603 0.102
01:08 1024 30.24 853 25.19 2.2 36 68 -3.1 26.4 2.615 0.103
01:09 1024 30.24 853 25.19 2.3 36.1 67 -3.2 26.3 2.637 0.104
01:10 1024 30.24 853 25.19 2.3 36.1 67 -3.1 26.4 2.677 0.105
01:11 1024 30.24 853 25.19 2.3 36.1 68 -3 26.6 2.682 0.106
01:12 1024 30.24 853 25.19 2.3 36.1 68 -3 26.6 2.705 0.106
01:13 1024 30.24 853 25.19 2.2 36 68 -3 26.6 2.688 0.106
01:14 1024 30.24 853 25.19 2.2 36 68 -3 26.5 2.649 0.104
01:15 1024 30.24 853 25.19 2.2 36 69 -2.8 27 2.626 0.103
01:16 1024 30.24 853 25.19 2.1 35.9 70 -2.8 27 2.592 0.102
01:17 1024 30.24 853 25.19 2.1 35.7 69 -3 26.7 2.53 0.1
01:18 1024 30.24 853 25.19 2.1 35.7 70 -2.8 26.9 2.479 0.098
01:19 1024 30.24 853 25.19 2 35.7 70 -2.9 26.8 2.456 0.097
01:20 1024 30.24 853 25.19 2 35.6 70 -2.9 26.8 2.428 0.096
01:21 1024 30.24 853 25.19 2 35.6 70 -2.8 26.9 2.417 0.095
01:22 1024 30.24 853 25.19 2 35.5 70 -2.9 26.8 2.383 0.094
01:23 1024 30.24 853 25.19 1.9 35.5 70 -2.9 26.8 2.366 0.093
01:24 1024 30.24 853 25.19 1.9 35.5 71 -2.8 27 2.343 0.092
01:25 1024 30.24 853 25.19 1.9 35.4 70 -3 26.6 2.32 0.091
01:26 1024 30.24 853 25.19 2 35.5 69 -3.1 26.5 2.32 0.091
01:27 1024 30.24 853 25.19 2 35.5 68 -3.3 26.1 2.377 0.094
01:28 1024 30.24 853 25.19 2 35.6 68 -3.3 26.1 2.394 0.094
01:29 1024 30.24 853 25.19 2 35.7 67 -3.4 25.9 2.439 0.096
01:30 1024 30.24 853 25.19 2.1 35.8 67 -3.3 26 2.467 0.097
01:31 1024 30.24 853 25.19 2.1 35.8 67 -3.5 25.8 2.513 0.099
01:32 1024 30.24 853 25.19 2.1 35.8 66 -3.6 25.5 2.507 0.099
01:33 1024 30.24 853 25.19 2.2 35.9 66 -3.4 25.8 2.535 0.1
01:34 1024 30.24 853 25.19 2.2 35.9 67 -3.3 26 2.569 0.101
01:35 1024 30.24 853 25.19 2.1 35.8 68 -3.2 26.3 2.496 0.098
01:36 1024 30.24 853 25.19 2 35.6 69 -3.2 26.3 2.405 0.095
01:37 1024 30.24 853 25.19 1.9 35.5 69 -3.2 26.3 2.315 0.091
01:38 1024 30.24 853 25.19 1.8 35.2 69 -3.3 26.1 2.258 0.089
01:39 1024 30.24 853 25.19 1.8 35.2 70 -3.2 26.2 2.196 0.086
01:40 1024 30.24 853 25.19 1.7 35 69 -3.4 26 2.089 0.082
01:41 1024 30.24 853 25.19 1.6 34.9 70 -3.3 26 2.061 0.081
01:42 1024 30.24 853 25.19 1.5 34.7 70 -3.3 26 1.965 0.077
01:43 1024 30.24 853 25.19 1.4 34.5 71 -3.3 26 1.846 0.073
01:44 1024 30.24 853 25.19 1.3 34.3 72 -3.2 26.2 1.744 0.069
01:45 1024 30.24 853 25.19 1.1 34 73 -3.2 26.2 1.591 0.063
01:46 1024 30.24 853 25.19 0.9 33.7 74 -3.2 26.2 1.416 0.056
01:47 1024 30.24 853 25.19 0.8 33.4 75 -3.2 26.2 1.259 0.05
01:48 1024 30.24 853 25.19 0.6 33.2 75 -3.2 26.2 1.095 0.043
01:49 1024 30.24 853 25.19 0.5 32.9 76 -3.2 26.2 .936 0.037
01:50 1024 30.24 853 25.19 0.3 32.6 77 -3.2 26.2 .801 0.032
01:51 1024 30.24 853 25.19 0.2 32.4 78 -3.2 26.2 .677 0.027
01:52 1024 30.24 853 25.19 0 32.1 79 -3.3 26.1 .581 0.023
01:53 1024 30.24 853 25.19 -0 31.9 79 -3.2 26.2 .434 0.017
01:54 1024 30.24 853 25.19 -0.1 31.8 80 -3.2 26.2 .355 0.014
01:55 1024 30.24 853 25.19 -0.2 31.6 80 -3.3 26 .208 0.008
01:56 1024 30.24 853 25.19 -0.3 31.5 80 -3.4 26 .22 0.009
01:57 1024 30.24 853 25.19 -0.2 31.6 80 -3.3 26 .174 0.007
01:58 1024 30.24 853 25.19 -0.3 31.6 80 -3.4 25.9 .163 0.006
01:59 1024 30.24 853 25.19 -0.2 31.6 79 -3.3 26 .186 0.007
02:00 1024 30.24 853 25.19 -0.2 31.6 79 -3.4 26 .209 0.008
02:01 1024 30.24 853 25.19 -0.2 31.6 80 -3.3 26 .209 0.008
02:02 1024 30.24 853 25.19 -0.2 31.6 80 -3.3 26 .192 0.008
02:03 1024 30.24 853 25.19 -0.3 31.5 80 -3.3 26 .198 0.008
02:04 1024 30.24 853 25.19 -0.2 31.6 80 -3.4 26 .176 0.007
02:05 1024 30.24 853 25.19 -0.2 31.6 79 -3.4 25.9 .182 0.007
02:06 1024 30.24 853 25.19 -0.2 31.6 79 -3.4 25.9 .16 0.006
02:07 1024 30.24 853 25.19 -0.3 31.5 79 -3.5 25.8 .137 0.005
02:08 1024 30.24 853 25.19 -0.3 31.5 79 -3.5 25.7 .143 0.006
02:09 1024 30.24 853 25.19 -0.3 31.4 79 -3.5 25.6 .126 0.005
02:10 1024 30.24 853 25.19 -0.3 31.4 79 -3.5 25.7 .082 0.003
02:11 1024 30.24 853 25.19 -0.4 31.2 80 -3.5 25.7 -.014 -0.001
02:12 1024 30.24 853 25.19 -0.5 31 80 -3.6 25.6 -.133 -0.005
02:13 1024 30.24 853 25.19 -0.6 30.9 80 -3.6 25.4 -.234 -0.009
02:14 1024 30.24 853 25.19 -0.5 31.1 77 -4 24.8 -.177 -0.007
02:15 1024 30.24 853 25.19 -0.2 31.7 76 -3.9 25 .128 0.005
02:16 1024 30.24 853 25.19 -0 31.9 75 -3.9 25 .293 0.012
02:17 1024 30.24 853 25.19 0 32 75 -3.9 25.1 .333 0.013
02:18 1024 30.24 853 25.19 -0 32 76 -3.8 25.1 .355 0.014
02:19 1024 30.24 853 25.19 -0.1 31.9 76 -3.7 25.3 .317 0.012
02:20 1024 30.24 853 25.19 -0.2 31.6 77 -3.7 25.3 .192 0.008
02:21 1024 30.24 853 25.19 -0.4 31.3 79 -3.6 25.4 .062 0.002
02:22 1024 30.24 853 25.19 -0.5 31.1 80 -3.6 25.5 -.119 -0.005
02:23 1024 30.24 853 25.19 -0.7 30.8 80 -3.6 25.5 -.209 -0.008
02:24 1024 30.24 853 25.19 -0.8 30.6 81 -3.6 25.5 -.317 -0.012
02:25 1024 30.24 853 25.19 -0.8 30.5 82 -3.6 25.6 -.379 -0.015
02:26 1024 30.24 853 25.19 -0.9 30.4 83 -3.4 25.8 -.407 -0.016
02:27 1024 30.24 853 25.19 -0.9 30.4 83 -3.4 25.9 -.441 -0.017
02:28 1024 30.24 853 25.19 -0.9 30.4 84 -3.3 26.1 -.441 -0.017
02:29 1024 30.24 853 25.19 -0.8 30.5 84 -3.3 26.1 -.407 -0.016
02:30 1024 30.24 853 25.19 -0.9 30.4 84 -3.3 26 -.48 -0.019
02:31 1024 30.24 853 25.19 -1 30.3 84 -3.3 26.1 -.491 -0.019
02:32 1024 30.24 853 25.19 -0.9 30.4 84 -3.3 26.1 -.474 -0.019
02:33 1024 30.24 853 25.19 -0.9 30.4 84 -3.3 26.1 -.474 -0.019
02:34 1024 30.24 853 25.19 -0.9 30.3 84 -3.3 26.1 -.491 -0.019
02:35 1024 30.24 853 25.19 -0.9 30.3 84 -3.3 26.1 -.491 -0.019
02:36 1024 30.24 853 25.19 -0.9 30.3 84 -3.3 26.1 -.502 -0.02
02:37 1024 30.24 853 25.19 -0.9 30.3 84 -3.2 26.2 -.491 -0.019
02:38 1024 30.24 853 25.19 -0.9 30.3 84 -3.3 26.1 -.531 -0.021
02:39 1024 30.24 853 25.19 -0.9 30.4 84 -3.3 26.1 -.48 -0.019
02:40 1024 30.24 853 25.19 -0.9 30.4 84 -3.3 26 -.485 -0.019
02:41 1024 30.24 853 25.19 -0.9 30.4 84 -3.3 26 -.48 -0.019
02:42 1024 30.24 853 25.19 -0.9 30.4 84 -3.3 26 -.496 -0.02
02:43 1024 30.24 853 25.19 -0.9 30.3 84 -3.4 26 -.53 -0.021
02:44 1024 30.24 853 25.19 -1 30.3 84 -3.3 26 -.547 -0.022
02:45 1024 30.24 853 25.19 -1 30.2 84 -3.4 25.9 -.53 -0.021
02:46 1024 30.24 853 25.19 -0.9 30.3 84 -3.4 26 -.502 -0.02
02:47 1024 30.24 853 25.19 -0.9 30.4 84 -3.3 26 -.462 -0.018
02:48 1024 30.24 853 25.19 -0.8 30.5 83 -3.3 26.1 -.433 -0.017
02:49 1024 30.24 853 25.19 -0.8 30.6 83 -3.3 26.1 -.382 -0.015
02:50 1024 30.24 853 25.19 -0.8 30.6 83 -3.3 26.1 -.382 -0.015
02:51 1024 30.24 853 25.19 -0.8 30.5 83 -3.3 26.1 -.398 -0.016
02:52 1024 30.24 853 25.19 -0.8 30.6 83 -3.3 26.1 -.369 -0.015
02:53 1024 30.24 853 25.19 -0.8 30.6 83 -3.2 26.2 -.364 -0.014
02:54 1024 30.24 853 25.19 -0.8 30.6 84 -3.2 26.2 -.397 -0.016
02:55 1024 30.24 853 25.19 -0.9 30.5 84 -3.2 26.2 -.402 -0.016
02:56 1024 30.24 853 25.19 -0.8 30.5 84 -3.2 26.2 -.385 -0.015
02:57 1024 30.24 853 25.19 -0.8 30.5 84 -3.2 26.2 -.402 -0.016
02:58 1024 30.24 853 25.19 -0.7 30.7 84 -3.2 26.3 -.373 -0.015
02:59 1024 30.24 853 25.19 -0.7 30.7 83 -3.2 26.2 -.322 -0.013
03:00 1024 30.24 853 25.19 -0.7 30.8 83 -3.2 26.2 -.288 -0.011
03:01 1024 30.24 853 25.19 -0.7 30.7 83 -3.3 26.1 -.242 -0.01
03:02 1024 30.24 853 25.19 -0.7 30.8 82 -3.3 26.1 -.242 -0.01
03:03 1024 30.24 853 25.19 -0.7 30.8 83 -3.3 26.1 -.265 -0.01
03:04 1024 30.24 853 25.19 -0.7 30.7 83 -3.3 26 -.327 -0.013
03:05 1023 30.21 853 25.19 -0.7 30.7 83 -3.3 26 -.367 -0.014
03:06 1023 30.21 853 25.19 -0.8 30.6 83 -3.3 26 -.366 -0.014
03:07 1023 30.21 853 25.19 -0.8 30.5 83 -3.3 26 -.4 -0.016
03:08 1023 30.21 853 25.19 -0.9 30.4 84 -3.3 26 -.479 -0.019
03:09 1023 30.21 853 25.19 -1 30.3 84 -3.4 25.9 -.536 -0.021
03:10 1023 30.21 853 25.19 -1 30.1 84 -3.4 25.9 -.581 -0.023
03:11 1023 30.21 853 25.19 -1.2 29.9 85 -3.4 25.8 -.677 -0.027
03:12 1023 30.21 853 25.19 -1.2 29.8 85 -3.4 25.8 -.796 -0.031
03:13 1023 30.21 853 25.19 -1.3 29.6 86 -3.4 25.8 -.875 -0.034
03:14 1023 30.21 853 25.19 -1.4 29.5 86 -3.4 25.8 -.943 -0.037
03:15 1023 30.21 853 25.19 -1.5 29.4 87 -3.4 25.9 -.987 -0.039
03:16 1023 30.21 853 25.19 -1.5 29.3 87 -3.5 25.7 -1.078 -0.042
03:17 1023 30.21 853 25.19 -1.5 29.3 87 -3.4 25.8 -1.049 -0.041
03:18 1023 30.21 853 25.19 -1.6 29.2 87 -3.5 25.8 -1.099 -0.043
03:19 1023 30.21 853 25.19 -1.6 29.1 87 -3.4 25.8 -1.133 -0.045
03:20 1023 30.21 853 25.19 -1.6 29.1 88 -3.4 25.9 -1.15 -0.045
03:21 1023 30.21 853 25.19 -1.6 29.1 87 -3.4 25.8 -1.16 -0.046
03:22 1023 30.21 853 25.19 -1.6 29.1 87 -3.5 25.8 -1.183 -0.047
03:23 1023 30.21 853 25.19 -1.6 29.1 87 -3.4 25.8 -1.211 -0.048
03:24 1023 30.21 853 25.19 -1.6 29.1 87 -3.5 25.8 -1.188 -0.047
03:25 1023 30.21 853 25.19 -1.6 29.1 87 -3.5 25.7 -1.188 -0.047
03:26 1023 30.21 853 25.19 -1.6 29.1 87 -3.5 25.7 -1.171 -0.046
03:27 1023 30.21 853 25.19 -1.6 29.1 87 -3.6 25.6 -1.227 -0.048
03:28 1023 30.21 853 25.19 -1.7 29 87 -3.6 25.5 -1.244 -0.049
03:29 1023 30.21 853 25.19 -1.7 28.9 87 -3.7 25.4 -1.312 -0.052
03:30 1023 30.21 853 25.19 -1.8 28.7 87 -3.7 25.3 -1.374 -0.054
03:31 1023 30.21 853 25.19 -1.8 28.7 87 -3.7 25.3 -1.402 -0.055
03:32 1023 30.21 853 25.19 -1.8 28.8 87 -3.7 25.3 -1.373 -0.054
03:33 1023 30.21 853 25.19 -1.8 28.8 87 -3.7 25.3 -1.39 -0.055
03:34 1023 30.21 853 25.19 -1.7 29 86 -3.8 25.2 -1.243 -0.049
03:35 1023 30.21 853 25.19 -1.5 29.2 85 -3.8 25.2 -1.175 -0.046
03:36 1023 30.21 853 25.19 -1.4 29.4 85 -3.7 25.3 -1.073 -0.042
03:37 1023 30.21 853 25.19 -1.4 29.5 84 -3.7 25.3 -.999 -0.039
03:38 1023 30.21 853 25.19 -1.4 29.5 84 -3.8 25.1 -.993 -0.039
03:39 1023 30.21 852 25.16 -1.4 29.4 84 -3.8 25.1 -1.056 -0.042
03:40 1023 30.21 852 25.16 -1.4 29.4 84 -3.8 25.2 -1.039 -0.041
03:41 1023 30.21 852 25.16 -1.4 29.5 84 -3.8 25.1 -1.027 -0.04
03:42 1023 30.21 852 25.16 -1.5 29.4 84 -3.8 25.1 -1.027 -0.04
03:43 1023 30.21 852 25.16 -1.5 29.3 84 -3.9 25 -1.106 -0.044
03:44 1023 30.21 852 25.16 -1.6 29.1 84 -3.9 25 -1.18 -0.046
03:45 1023 30.21 852 25.16 -1.6 29.1 85 -3.9 25 -1.265 -0.05
03:46 1023 30.21 853 25.19 -1.6 29.1 85 -3.8 25.1 -1.259 -0.05
03:47 1023 30.21 852 25.16 -1.6 29.1 84 -3.9 25 -1.225 -0.048
03:48 1023 30.21 852 25.16 -1.5 29.3 84 -3.8 25.1 -1.163 -0.046
03:49 1023 30.21 852 25.16 -1.5 29.3 84 -3.9 25.1 -1.14 -0.045
03:50 1023 30.21 852 25.16 -1.5 29.3 84 -3.9 25 -1.112 -0.044
03:51 1023 30.21 852 25.16 -1.5 29.4 83 -3.9 24.9 -1.1 -0.043
03:52 1023 30.21 852 25.16 -1.5 29.2 84 -4 24.9 -1.123 -0.044
03:53 1023 30.21 852 25.16 -1.5 29.2 84 -4 24.9 -1.123 -0.044
03:54 1023 30.21 852 25.16 -1.5 29.2 84 -4 24.9 -1.134 -0.045
03:55 1023 30.21 852 25.16 -1.5 29.3 83 -4 24.9 -1.066 -0.042
03:56 1023 30.21 852 25.16 -1.4 29.5 83 -4 24.9 -1.032 -0.041
03:57 1023 30.21 852 25.16 -1.4 29.5 82 -4 24.7 -1.015 -0.04
03:58 1023 30.21 852 25.16 -1.3 29.6 82 -4.1 24.7 -.998 -0.039
03:59 1023 30.21 852 25.16 -1.3 29.7 81 -4.1 24.7 -.89 -0.035
04:00 1023 30.21 852 25.16 -1.2 29.8 81 -4.1 24.7 -.902 -0.036
04:01 1023 30.21 852 25.16 -1.3 29.7 81 -4.1 24.6 -.907 -0.036
04:02 1023 30.21 852 25.16 -1.3 29.6 81 -4.1 24.6 -.936 -0.037
04:03 1023 30.21 852 25.16 -1.4 29.5 82 -4.1 24.6 -1.015 -0.04
04:04 1023 30.21 852 25.16 -1.4 29.4 82 -4 24.7 -1.094 -0.043
04:05 1023 30.21 852 25.16 -1.5 29.3 82 -4.1 24.6 -1.1 -0.043
04:06 1023 30.21 852 25.16 -1.6 29.1 83 -4.2 24.5 -1.208 -0.048
04:07 1023 30.21 852 25.16 -1.7 28.9 83 -4.2 24.4 -1.321 -0.052
04:08 1023 30.21 852 25.16 -1.8 28.8 84 -4.2 24.5 -1.372 -0.054
04:09 1023 30.21 852 25.16 -1.8 28.7 84 -4.2 24.5 -1.4 -0.055
04:10 1023 30.21 852 25.16 -1.8 28.7 84 -4.2 24.5 -1.4 -0.055
04:11 1023 30.21 852 25.16 -1.8 28.7 84 -4.2 24.5 -1.428 -0.056
04:12 1023 30.21 852 25.16 -1.8 28.7 84 -4.2 24.5 -1.423 -0.056
04:13 1023 30.21 852 25.16 -1.9 28.7 84 -4.2 24.5 -1.451 -0.057
04:14 1023 30.21 852 25.16 -1.8 28.8 84 -4.2 24.5 -1.4 -0.055
04:15 1023 30.21 852 25.16 -1.8 28.7 84 -4.2 24.4 -1.417 -0.056
04:16 1023 30.21 852 25.16 -1.9 28.6 84 -4.2 24.4 -1.468 -0.058
04:17 1023 30.21 852 25.16 -1.9 28.6 84 -4.2 24.4 -1.508 -0.059
04:18 1023 30.21 852 25.16 -1.9 28.5 85 -4.2 24.5 -1.496 -0.059
04:19 1023 30.21 852 25.16 -1.9 28.6 84 -4.2 24.5 -1.451 -0.057
04:20 1023 30.21 852 25.16 -2 28.5 84 -4.3 24.2 -1.553 -0.061
04:21 1023 30.21 852 25.16 -2.1 28.3 86 -4.2 24.5 -1.615 -0.064
04:22 1023 30.21 852 25.16 -2 28.4 85 -4.2 24.5 -1.552 -0.061
04:23 1023 30.21 852 25.16 -1.9 28.6 85 -4.1 24.6 -1.467 -0.058
04:24 1023 30.21 852 25.16 -1.8 28.8 84 -4.2 24.4 -1.421 -0.056
04:25 1023 30.21 852 25.16 -1.8 28.8 84 -4.2 24.4 -1.426 -0.056
04:26 1023 30.21 852 25.16 -1.8 28.7 83 -4.3 24.2 -1.437 -0.057
04:27 1023 30.21 852 25.16 -1.9 28.5 83 -4.4 24 -1.551 -0.061
04:28 1023 30.21 852 25.16 -2.1 28.2 84 -4.5 23.8 -1.657 -0.065
04:29 1023 30.21 852 25.16 -2.2 28 85 -4.5 24 -1.793 -0.071
04:30 1023 30.21 852 25.16 -2.2 28 85 -4.4 24 -1.827 -0.072
04:31 1023 30.21 852 25.16 -2.2 28 85 -4.4 24.2 -1.844 -0.073
04:32 1023 30.21 852 25.16 -2.2 28.1 85 -4.3 24.2 -1.77 -0.07
04:33 1023 30.21 852 25.16 -2.2 28.1 85 -4.4 24.1 -1.747 -0.069
04:34 1023 30.21 852 25.16 -2.2 28.1 85 -4.4 24.1 -1.792 -0.071
04:35 1023 30.21 852 25.16 -2.2 28 85 -4.5 23.9 -1.86 -0.073
04:36 1023 30.21 852 25.16 -2.3 27.9 85 -4.5 23.9 -1.934 -0.076
04:37 1023 30.21 852 25.16 -2.4 27.8 86 -4.5 24 -2.012 -0.079
04:38 1023 30.21 852 25.16 -2.4 27.6 86 -4.5 23.9 -2.046 -0.081
04:39 1023 30.21 852 25.16 -2.5 27.6 86 -4.5 23.9 -2.069 -0.081
04:40 1023 30.21 852 25.16 -2.4 27.6 86 -4.4 24.1 -2.052 -0.081
04:41 1023 30.21 852 25.16 -2.4 27.7 87 -4.3 24.2 -1.995 -0.079
04:42 1023 30.21 852 25.16 -2.1 28.2 85 -4.3 24.3 -1.752 -0.069
04:43 1023 30.21 852 25.16 -1.7 28.9 83 -4.2 24.5 -1.428 -0.056
04:44 1023 30.21 852 25.16 -1.5 29.4 81 -4.3 24.3 -1.23 -0.048
04:45 1023 30.21 852 25.16 -1.3 29.6 80 -4.3 24.2 -1.094 -0.043
04:46 1023 30.21 852 25.16 -1.3 29.7 80 -4.3 24.3 -1.093 -0.043
04:47 1023 30.21 853 25.19 -1.2 29.9 80 -4.3 24.3 -1.002 -0.039
04:48 1023 30.21 852 25.16 -1.1 30 78 -4.4 24.1 -.94 -0.037
04:49 1023 30.21 853 25.19 -1.1 29.9 78 -4.4 24 -.974 -0.038
04:50 1023 30.21 853 25.19 -1.3 29.7 78 -4.6 23.7 -1.042 -0.041
04:51 1023 30.21 853 25.19 -1.4 29.5 80 -4.5 24 -1.143 -0.045
04:52 1023 30.21 853 25.19 -1.5 29.3 80 -4.5 24 -1.194 -0.047
04:53 1023 30.21 853 25.19 -1.5 29.4 80 -4.4 24 -1.171 -0.046
04:54 1023 30.21 853 25.19 -1.5 29.4 80 -4.4 24 -1.131 -0.045
04:55 1023 30.21 853 25.19 -1.5 29.3 81 -4.4 24 -1.164 -0.046
04:56 1023 30.21 853 25.19 -1.5 29.3 81 -4.4 24.1 -1.164 -0.046
04:57 1023 30.21 853 25.19 -1.5 29.3 81 -4.4 24.1 -1.147 -0.045
04:58 1023 30.21 853 25.19 -1.4 29.5 81 -4.3 24.2 -1.124 -0.044
04:59 1023 30.21 853 25.19 -1.4 29.5 81 -4.3 24.2 -1.09 -0.043
05:00 1023 30.21 853 25.19 -1.3 29.6 80 -4.3 24.2 -1.033 -0.041
05:01 1023 30.21 853 25.19 -1.3 29.7 79 -4.4 24 -.993 -0.039
05:02 1023 30.21 853 25.19 -1.4 29.4 79 -4.6 23.7 -1.083 -0.043
05:03 1023 30.21 853 25.19 -1.5 29.3 79 -4.7 23.6 -1.196 -0.047
05:04 1023 30.21 853 25.19 -1.6 29.1 80 -4.6 23.6 -1.259 -0.05
05:05 1023 30.21 853 25.19 -1.6 29.1 81 -4.5 23.9 -1.264 -0.05
05:06 1023 30.21 853 25.19 -1.5 29.3 81 -4.4 24.1 -1.179 -0.046
05:07 1023 30.21 853 25.19 -1.4 29.6 81 -4.3 24.3 -1.037 -0.041
05:08 1023 30.21 853 25.19 -1.3 29.7 77 -4.7 23.5 -.947 -0.037
05:09 1023 30.21 853 25.19 -1.5 29.3 79 -4.7 23.6 -1.145 -0.045
05:10 1023 30.21 853 25.19 -1.6 29.2 79 -4.7 23.6 -1.23 -0.048
05:11 1023 30.21 853 25.19 -1.6 29.2 80 -4.7 23.6 -1.218 -0.048
05:12 1023 30.21 852 25.16 -1.5 29.2 80 -4.5 23.8 -1.224 -0.048
05:13 1023 30.21 853 25.19 -1.5 29.3 80 -4.5 23.9 -1.19 -0.047
05:14 1023 30.21 852 25.16 -1.5 29.3 79 -4.8 23.4 -1.201 -0.047
05:15 1023 30.21 852 25.16 -1.8 28.8 80 -4.8 23.3 -1.399 -0.055
05:16 1023 30.21 852 25.16 -2.1 28.2 80 -5.1 22.8 -1.705 -0.067
05:17 1023 30.21 852 25.16 -2.4 27.7 82 -5.1 22.8 -1.977 -0.078
05:18 1023 30.21 852 25.16 -2.6 27.3 83 -5.1 22.9 -2.186 -0.086
05:19 1023 30.21 852 25.16 -2.8 26.9 83 -5.4 22.3 -2.339 -0.092
05:20 1023 30.21 853 25.19 -3.1 26.5 85 -5.3 22.5 -2.6 -0.102
05:21 1023 30.21 853 25.19 -3.3 26.1 86 -5.3 22.4 -2.804 -0.11
05:22 1023 30.21 853 25.19 -3.4 25.9 86 -5.4 22.3 -2.928 -0.115
05:23 1023 30.21 853 25.19 -3.5 25.8 87 -5.4 22.4 -3.019 -0.119
05:24 1023 30.21 853 25.19 -3.5 25.7 88 -5.2 22.6 -3.081 -0.121
05:25 1023 30.21 853 25.19 -3.4 25.9 89 -4.9 23.1 -2.996 -0.118
05:26 1023 30.21 853 25.19 -3.2 26.2 89 -4.9 23.3 -2.837 -0.112
05:27 1023 30.21 853 25.19 -3.1 26.4 88 -4.8 23.4 -2.696 -0.106
05:28 1023 30.21 853 25.19 -3 26.5 88 -4.8 23.4 -2.599 -0.102
05:29 1023 30.21 853 25.19 -3 26.6 85 -5.1 22.8 -2.594 -0.102
05:30 1023 30.21 853 25.19 -3.2 26.2 86 -5.3 22.5 -2.735 -0.108
05:31 1023 30.21 853 25.19 -3.5 25.8 87 -5.4 22.3 -2.996 -0.118
05:32 1023 30.21 853 25.19 -3.6 25.6 87 -5.4 22.2 -3.138 -0.124
05:33 1023 30.21 853 25.19 -3.6 25.5 88 -5.3 22.4 -3.183 -0.125
05:34 1023 30.21 853 25.19 -3.5 25.7 89 -5.1 22.8 -3.126 -0.123
05:35 1023 30.21 853 25.19 -3.5 25.6 88 -5.3 22.5 -3.194 -0.126
05:36 1023 30.21 852 25.16 -3.6 25.6 90 -5 23 -3.188 -0.126
05:37 1023 30.21 852 25.16 -3.4 25.8 90 -4.8 23.4 -2.985 -0.118
05:38 1023 30.21 852 25.16 -3 26.5 90 -4.4 24.1 -2.662 -0.105
05:39 1023 30.21 852 25.16 -2.7 27.2 87 -4.6 23.8 -2.35 -0.093
05:40 1023 30.21 852 25.16 -2.6 27.3 86 -4.7 23.6 -2.339 -0.092
05:41 1023 30.21 852 25.16 -2.6 27.3 86 -4.7 23.6 -2.271 -0.089
05:42 1023 30.21 852 25.16 -2.6 27.4 86 -4.7 23.6 -2.248 -0.089
05:43 1023 30.21 852 25.16 -2.6 27.4 82 -5.2 22.7 -2.276 -0.09
05:44 1023 30.21 852 25.16 -2.8 27 83 -5.3 22.5 -2.441 -0.096
05:45 1023 30.21 852 25.16 -3 26.6 83 -5.5 22.1 -2.667 -0.105
05:46 1023 30.21 852 25.16 -3.2 26.3 86 -5.1 22.7 -2.837 -0.112
05:47 1023 30.21 852 25.16 -3.1 26.4 86 -5.1 22.8 -2.781 -0.109
05:48 1023 30.21 852 25.16 -3.1 26.5 85 -5.2 22.6 -2.707 -0.107
05:49 1023 30.21 852 25.16 -3.1 26.4 85 -5.3 22.5 -2.775 -0.109
05:50 1023 30.21 852 25.16 -3.3 26.1 84 -5.6 22 -2.848 -0.112
05:51 1023 30.21 852 25.16 -3.4 25.8 85 -5.6 22 -3.047 -0.12
05:52 1023 30.21 852 25.16 -3.6 25.6 86 -5.6 22 -3.149 -0.124
05:53 1023 30.21 852 25.16 -3.6 25.5 87 -5.5 22.2 -3.193 -0.126
05:54 1023 30.21 852 25.16 -3.6 25.5 86 -5.6 21.9 -3.204 -0.126
05:55 1023 30.21 852 25.16 -3.7 25.3 87 -5.5 22.1 -3.278 -0.129
05:56 1023 30.21 852 25.16 -3.6 25.5 87 -5.4 22.2 -3.232 -0.127
05:57 1023 30.21 852 25.16 -3.5 25.7 89 -5.1 22.9 -3.129 -0.123
05:58 1023 30.21 852 25.16 -3.4 25.9 86 -5.4 22.3 -3.027 -0.119
05:59 1023 30.21 852 25.16 -3.4 25.9 86 -5.4 22.3 -3.01 -0.119
06:00 1023 30.21 852 25.16 -3.4 25.9 85 -5.5 22.1 -3.044 -0.12
06:01 1023 30.21 852 25.16 -3.4 25.9 87 -5.2 22.6 -3.049 -0.12
06:02 1023 30.21 852 25.16 -3.3 26.1 87 -5.2 22.7 -2.918 -0.115
06:03 1023 30.21 852 25.16 -3.3 26.1 88 -5 23 -2.862 -0.113
06:04 1023 30.21 852 25.16 -3 26.5 87 -4.9 23.1 -2.692 -0.106
06:05 1023 30.21 852 25.16 -3 26.6 85 -5.2 22.7 -2.686 -0.106
06:06 1023 30.21 852 25.16 -2.9 26.7 87 -4.8 23.3 -2.606 -0.103
06:07 1023 30.21 852 25.16 -2.8 27 86 -4.8 23.3 -2.414 -0.095
06:08 1023 30.21 852 25.16 -2.6 27.4 86 -4.7 23.6 -2.26 -0.089
06:09 1023 30.21 852 25.16 -2.6 27.4 82 -5.3 22.5 -2.238 -0.088
06:10 1023 30.21 852 25.16 -2.8 26.9 85 -5 23 -2.458 -0.097
06:11 1023 30.21 852 25.16 -2.7 27.1 83 -5.2 22.7 -2.379 -0.094
06:12 1023 30.21 852 25.16 -2.7 27.1 86 -4.8 23.4 -2.385 -0.094
06:13 1023 30.21 852 25.16 -2.4 27.7 85 -4.5 23.8 -2.039 -0.08
06:14 1023 30.21 852 25.16 -1.9 28.5 83 -4.5 24 -1.659 -0.065
06:15 1023 30.21 852 25.16 -1.8 28.7 77 -5.2 22.6 -1.472 -0.058
06:16 1023 30.21 852 25.16 -2.3 27.9 80 -5.4 22.4 -1.937 -0.076
06:17 1023 30.21 852 25.16 -2.7 27.2 82 -5.3 22.5 -2.265 -0.089
06:18 1023 30.21 852 25.16 -2.8 26.9 84 -5.2 22.7 -2.429 -0.096
06:19 1023 30.21 852 25.16 -2.9 26.9 83 -5.3 22.5 -2.492 -0.098
06:20 1023 30.21 852 25.16 -2.9 26.7 83 -5.4 22.4 -2.548 -0.1
06:21 1023 30.21 852 25.16 -3.1 26.5 83 -5.6 22 -2.707 -0.107
06:22 1023 30.21 852 25.16 -3.3 26 84 -5.6 21.8 -2.916 -0.115
06:23 1023 30.21 852 25.16 -3.4 25.8 85 -5.6 22 -3.024 -0.119
06:24 1023 30.21 852 25.16 -3.5 25.6 85 -5.8 21.6 -3.115 -0.123
06:25 1023 30.21 852 25.16 -3.7 25.3 84 -6 21.1 -3.313 -0.13
06:26 1023 30.21 852 25.16 -4 24.8 86 -6.1 21.1 -3.59 -0.141
06:27 1023 30.21 852 25.16 -4.1 24.6 88 -5.8 21.6 -3.721 -0.146
06:28 1023 30.21 852 25.16 -4 24.7 89 -5.7 21.8 -3.641 -0.143
06:29 1023 30.21 852 25.16 -4 24.8 89 -5.6 22 -3.595 -0.142
06:30 1023 30.21 852 25.16 -4 24.8 88 -5.6 21.8 -3.606 -0.142
06:31 1023 30.21 852 25.16 -3.9 24.9 89 -5.5 22 -3.537 -0.139
06:32 1023 30.21 852 25.16 -3.8 25.1 89 -5.4 22.2 -3.503 -0.138
06:33 1023 30.21 852 25.16 -3.7 25.3 88 -5.4 22.3 -3.418 -0.135
06:34 1023 30.21 852 25.16 -3.7 25.4 87 -5.5 22.1 -3.395 -0.134
06:35 1023 30.21 852 25.16 -3.8 25.2 87 -5.6 22 -3.446 -0.136
06:36 1023 30.21 852 25.16 -3.8 25.2 88 -5.5 22.1 -3.406 -0.134
06:37 1023 30.21 852 25.16 -3.8 25.2 88 -5.6 22 -3.434 -0.135
06:38 1023 30.21 852 25.16 -3.8 25.2 88 -5.4 22.2 -3.451 -0.136
06:39 1023 30.21 852 25.16 -3.7 25.3 88 -5.5 22.1 -3.456 -0.136
06:40 1023 30.21 852 25.16 -3.8 25.1 87 -5.7 21.8 -3.461 -0.136
06:41 1023 30.21 852 25.16 -3.9 25 87 -5.7 21.7 -3.546 -0.14
06:42 1023 30.21 852 25.16 -4 24.8 87 -5.8 21.6 -3.671 -0.145
06:43 1023 30.21 852 25.16 -4.1 24.7 87 -5.9 21.5 -3.733 -0.147
06:44 1023 30.21 852 25.16 -4.2 24.5 88 -5.9 21.4 -3.807 -0.15
06:45 1023 30.21 852 25.16 -4.2 24.5 90 -5.7 21.8 -3.835 -0.151
06:46 1023 30.21 852 25.16 -4.1 24.7 90 -5.5 22.2 -3.693 -0.145
06:47 1023 30.21 852 25.16 -3.9 25 90 -5.3 22.4 -3.506 -0.138
06:48 1023 30.21 852 25.16 -3.7 25.3 89 -5.3 22.4 -3.37 -0.133
06:49 1023 30.21 852 25.16 -3.7 25.3 85 -5.9 21.3 -3.426 -0.135
06:50 1023 30.21 852 25.16 -3.9 24.9 87 -5.7 21.7 -3.613 -0.142
06:51 1023 30.21 852 25.16 -4 24.7 88 -5.7 21.7 -3.664 -0.144
06:52 1023 30.21 852 25.16 -4.1 24.7 88 -5.8 21.5 -3.67 -0.144
06:53 1023 30.21 852 25.16 -4.1 24.6 88 -5.8 21.6 -3.76 -0.148
06:54 1023 30.21 852 25.16 -4.2 24.5 88 -5.9 21.4 -3.817 -0.15
06:55 1023 30.21 852 25.16 -4.3 24.3 88 -6 21.2 -3.902 -0.154
06:56 1023 30.21 852 25.16 -4.4 24.1 88 -6 21.1 -3.998 -0.157
06:57 1023 30.21 852 25.16 -4.4 24 89 -6 21.1 -4.106 -0.162
06:58 1023 30.21 852 25.16 -4.5 24 90 -5.9 21.3 -4.089 -0.161
06:59 1023 30.21 852 25.16 -4.5 24 89 -6 21.3 -4.128 -0.163
07:00 1023 30.21 852 25.16 -4.5 23.9 90 -5.9 21.4 -4.106 -0.162
07:01 1023 30.21 852 25.16 -4.4 24 89 -5.9 21.3 -4.117 -0.162
07:02 1023 30.21 852 25.16 -4.5 24 90 -5.8 21.6 -4.072 -0.16
07:03 1023 30.21 852 25.16 -4.3 24.2 91 -5.5 22 -4.009 -0.158
07:04 1023 30.21 852 25.16 -4.2 24.4 90 -5.6 21.9 -3.856 -0.152
07:05 1023 30.21 852 25.16 -4.2 24.5 90 -5.6 22 -3.839 -0.151
07:06 1023 30.21 852 25.16 -4.1 24.7 90 -5.5 22 -3.766 -0.148
07:07 1023 30.21 852 25.16 -4.1 24.7 90 -5.5 22.1 -3.709 -0.146
07:08 1023 30.21 852 25.16 -4 24.8 89 -5.5 22 -3.658 -0.144
07:09 1023 30.21 852 25.16 -4 24.8 87 -5.8 21.5 -3.624 -0.143
07:10 1023 30.21 852 25.16 -4.2 24.5 87 -6 21.2 -3.839 -0.151
07:11 1023 30.21 852 25.16 -4.3 24.3 88 -5.9 21.4 -3.907 -0.154
07:12 1023 30.21 852 25.16 -4.3 24.3 89 -5.8 21.6 -3.924 -0.154
07:13 1023 30.21 852 25.16 -4.3 24.3 88 -5.9 21.3 -3.952 -0.156
07:14 1023 30.21 852 25.16 -4.3 24.3 88 -6 21.3 -4.003 -0.158
07:15 1023 30.21 852 25.16 -4.4 24 88 -6.2 20.9 -4.128 -0.163
07:16 1023 30.21 852 25.16 -4.6 23.8 87 -6.4 20.6 -4.27 -0.168
07:17 1023 30.21 852 25.16 -4.7 23.5 89 -6.2 20.8 -4.389 -0.173
07:18 1023 30.21 852 25.16 -4.8 23.4 89 -6.3 20.7 -4.4 -0.173
07:19 1023 30.21 852 25.16 -4.8 23.3 89 -6.4 20.4 -4.474 -0.176
07:20 1023 30.21 852 25.16 -5 23.1 89 -6.5 20.2 -4.564 -0.18
07:21 1023 30.21 852 25.16 -5.1 22.8 89 -6.7 20 -4.7 -0.185
07:22 1023 30.21 852 25.16 -5.2 22.7 90 -6.6 20.2 -4.78 -0.188
07:23 1023 30.21 852 25.16 -5.1 22.8 91 -6.4 20.4 -4.763 -0.188
07:24 1023 30.21 852 25.16 -5.2 22.7 90 -6.6 20.2 -4.785 -0.188
07:25 1023 30.21 852 25.16 -5.3 22.5 90 -6.7 20 -4.842 -0.191
07:26 1023 30.21 852 25.16 -5.3 22.4 91 -6.6 20.1 -4.91 -0.193
07:27 1023 30.21 852 25.16 -5.3 22.4 92 -6.4 20.5 -4.865 -0.192
07:28 1023 30.21 852 25.16 -5.2 22.7 92 -6.3 20.6 -4.825 -0.19
07:29 1023 30.21 852 25.16 -5.1 22.8 91 -6.3 20.6 -4.797 -0.189
07:30 1023 30.21 852 25.16 -5.1 22.7 91 -6.3 20.6 -4.78 -0.188
07:31 1023 30.21 852 25.16 -5.1 22.8 92 -6.3 20.7 -4.757 -0.187
07:32 1023 30.21 852 25.16 -5.1 22.9 92 -6.2 20.8 -4.649 -0.183
07:33 1023 30.21 852 25.16 -5 23 91 -6.2 20.8 -4.695 -0.185
07:34 1023 30.21 852 25.16 -5 23.1 91 -6.2 20.9 -4.638 -0.183
07:35 1023 30.21 852 25.16 -5 23 91 -6.2 20.8 -4.672 -0.184
07:36 1023 30.21 852 25.16 -5 23.1 92 -6.1 21 -4.661 -0.184
07:37 1023 30.21 852 25.16 -4.9 23.2 92 -6.1 21.1 -4.576 -0.18
07:38 1023 30.21 852 25.16 -4.9 23.2 92 -6.1 21.1 -4.513 -0.178
07:39 1023 30.21 852 25.16 -4.8 23.3 91 -6 21.1 -4.474 -0.176
07:40 1023 30.21 852 25.16 -4.8 23.4 91 -6 21.2 -4.4 -0.173
07:41 1023 30.21 852 25.16 -4.7 23.5 91 -6 21.2 -4.366 -0.172
07:42 1023 30.21 852 25.16 -4.7 23.5 90 -6.1 21 -4.355 -0.171
07:43 1023 30.21 852 25.16 -4.7 23.5 90 -6.1 21 -4.377 -0.172
07:44 1023 30.21 852 25.16 -4.7 23.5 90 -6.1 21.1 -4.298 -0.169
07:45 1023 30.21 852 25.16 -4.6 23.8 90 -6 21.3 -4.258 -0.168
07:46 1023 30.21 852 25.16 -4.5 24 90 -5.9 21.3 -4.139 -0.163
07:47 1023 30.21 852 25.16 -4.3 24.2 90 -5.7 21.8 -4.02 -0.158
07:48 1023 30.21 852 25.16 -4.1 24.6 90 -5.5 22 -3.839 -0.151
07:49 1023 30.21 852 25.16 -3.9 25 90 -5.3 22.5 -3.629 -0.143
07:50 1023 30.21 852 25.16 -3.6 25.5 90 -5.1 22.9 -3.334 -0.131
07:51 1023 30.21 852 25.16 -3.3 26.1 88 -4.9 23.1 -3.096 -0.122
07:52 1023 30.21 852 25.16 -3 26.6 87 -4.8 23.4 -2.807 -0.111
07:53 1023 30.21 852 25.16 -2.7 27.2 86 -4.7 23.5 -2.569 -0.101
07:54 1023 30.21 852 25.16 -2.5 27.5 85 -4.7 23.5 -2.348 -0.092
07:55 1023 30.21 852 25.16 -2.4 27.7 84 -4.7 23.5 -2.195 -0.086
07:56 1023 30.21 852 25.16 -2.3 27.8 83 -4.8 23.4 -2.121 -0.084
07:57 1023 30.21 852 25.16 -2.4 27.8 83 -4.8 23.3 -2.115 -0.083
07:58 1023 30.21 852 25.16 -2.4 27.7 83 -4.8 23.3 -2.149 -0.085
07:59 1023 30.21 852 25.16 -2.5 27.5 84 -4.8 23.3 -2.194 -0.086
08:00 1023 30.21 852 25.16 -2.6 27.4 84 -4.8 23.3 -2.262 -0.089
08:01 1023 30.21 852 25.16 -2.6 27.3 85 -4.9 23.2 -2.268 -0.089
08:02 1023 30.21 852 25.16 -2.7 27.2 85 -4.9 23.1 -2.353 -0.093
08:03 1023 30.21 852 25.16 -2.7 27.1 85 -4.9 23.2 -2.37 -0.093
08:04 1023 30.21 852 25.16 -2.7 27.1 85 -4.9 23.2 -2.41 -0.095
08:05 1023 30.21 852 25.16 -2.7 27.1 86 -4.8 23.4 -2.404 -0.095
08:06 1023 30.21 852 25.16 -2.7 27.1 86 -4.8 23.4 -2.404 -0.095
08:07 1023 30.21 852 25.16 -2.7 27.1 86 -4.7 23.5 -2.37 -0.093
08:08 1023 30.21 852 25.16 -2.6 27.3 86 -4.7 23.6 -2.314 -0.091
08:09 1023 30.21 852 25.16 -2.6 27.3 86 -4.6 23.7 -2.223 -0.088
08:10 1023 30.21 852 25.16 -2.5 27.5 86 -4.6 23.8 -2.189 -0.086
08:11 1023 30.21 852 25.16 -2.5 27.5 86 -4.6 23.8 -2.15 -0.085
08:12 1023 30.21 852 25.16 -2.5 27.5 85 -4.6 23.6 -2.099 -0.083
08:13 1023 30.21 852 25.16 -2.5 27.6 85 -4.6 23.7 -2.15 -0.085
08:14 1023 30.21 852 25.16 -2.5 27.4 85 -4.7 23.5 -2.15 -0.085
08:15 1023 30.21 852 25.16 -2.5 27.5 85 -4.6 23.7 -2.133 -0.084
08:16 1023 30.21 852 25.16 -2.4 27.6 85 -4.6 23.7 -2.053 -0.081
08:17 1023 30.21 852 25.16 -2.3 27.9 85 -4.5 23.9 -1.923 -0.076
08:18 1023 30.21 852 25.16 -2 28.3 84 -4.4 24.2 -1.77 -0.07
08:19 1023 30.21 852 25.16 -1.9 28.6 84 -4.3 24.3 -1.617 -0.064
08:20 1023 30.21 852 25.16 -1.7 28.9 83 -4.2 24.5 -1.47 -0.058
08:21 1023 30.21 852 25.16 -1.7 29 83 -4.3 24.3 -1.39 -0.055
08:22 1023 30.21 852 25.16 -1.6 29 83 -4.2 24.5 -1.368 -0.054
08:23 1023 30.21 852 25.16 -1.6 29.2 83 -4.1 24.6 -1.3 -0.051
08:24 1023 30.21 852 25.16 -1.5 29.3 82 -4.1 24.6 -1.192 -0.047
08:25 1023 30.21 852 25.16 -1.3 29.6 81 -4.2 24.4 -1.005 -0.04
08:26 1023 30.21 852 25.16 -1.1 30 80 -4.1 24.6 -.847 -0.033
08:27 1023 30.21 852 25.16 -1 30.3 80 -4 24.9 -.677 -0.027
08:28 1023 30.21 852 25.16 -0.9 30.4 80 -3.9 25 -.495 -0.019
08:29 1023 30.21 852 25.16 -0.8 30.6 79 -3.9 24.9 -.382 -0.015
08:30 1023 30.21 852 25.16 -0.7 30.8 80 -3.8 25.2 -.28 -0.011
08:31 1023 30.21 852 25.16 -0.7 30.8 79 -3.9 24.9 -.223 -0.009
08:32 1023 30.21 852 25.16 -0.6 30.9 77 -4.2 24.4 -.212 -0.008
08:33 1023 30.21 852 25.16 -0.6 31 78 -4 24.9 -.195 -0.008
08:34 1023 30.21 852 25.16 -0.5 31 78 -4 24.8 -.155 -0.006
08:35 1023 30.21 852 25.16 -0.5 31.2 78 -3.8 25.1 -.127 -0.005
08:36 1023 30.21 852 25.16 -0.5 31.2 77 -3.9 24.9 -.099 -0.004
08:37 1023 30.21 852 25.16 -0.4 31.2 78 -3.8 25.2 -.082 -0.003
08:38 1023 30.21 852 25.16 -0.4 31.3 79 -3.5 25.7 -.009 -0
08:39 1023 30.21 852 25.16 -0.3 31.5 79 -3.5 25.6 .104 0.004
08:40 1023 30.21 852 25.16 -0.2 31.6 78 -3.5 25.7 .183 0.007
08:41 1023 30.21 852 25.16 -0.1 31.8 76 -3.8 25.1 .301 0.012
08:42 1023 30.21 852 25.16 0 32.1 74 -4.1 24.6 .381 0.015
08:43 1023 30.21 852 25.16 0.2 32.3 74 -3.9 25.1 .533 0.021
08:44 1023 30.21 852 25.16 0.4 32.7 75 -3.6 25.5 .759 0.03
08:45 1023 30.21 852 25.16 0.5 33 74 -3.5 25.7 .963 0.038
08:46 1023 30.21 852 25.16 0.8 33.4 75 -3.2 26.3 1.178 0.046
08:47 1023 30.21 852 25.16 1 33.8 74 -3.1 26.5 1.388 0.055
08:48 1023 30.21 852 25.16 1.2 34.1 71 -3.5 25.8 1.467 0.058
08:49 1023 30.21 852 25.16 1.2 34.2 72 -3.4 25.9 1.516 0.06
08:50 1023 30.21 852 25.16 1.3 34.3 73 -3.1 26.5 1.584 0.062
08:51 1023 30.21 852 25.16 1.3 34.4 72 -3.1 26.3 1.624 0.064
08:52 1023 30.21 852 25.16 1.2 34.2 70 -3.6 25.6 1.639 0.065
08:53 1023 30.21 852 25.16 1.2 34.2 71 -3.5 25.7 1.582 0.062
08:54 1023 30.21 852 25.16 1.2 34.1 72 -3.3 26.1 1.588 0.063
08:55 1023 30.21 852 25.16 1.2 34.1 73 -3.2 26.3 1.638 0.064
08:56 1023 30.21 852 25.16 1.2 34.1 72 -3.4 26 1.643 0.065
08:57 1023 30.21 852 25.16 1.3 34.3 71 -3.4 25.9 1.677 0.066
08:58 1023 30.21 852 25.16 1.3 34.4 71 -3.3 26.1 1.642 0.065
08:59 1023 30.21 852 25.16 1.3 34.3 69 -3.8 25.2 1.659 0.065
09:00 1023 30.21 852 25.16 1.3 34.3 71 -3.4 25.9 1.688 0.066
09:01 1023 30.21 852 25.16 1.4 34.4 70 -3.6 25.6 1.8 0.071
09:02 1023 30.21 852 25.16 1.4 34.6 71 -3.3 26 1.914 0.075
09:03 1023 30.21 852 25.16 1.6 34.9 72 -2.9 26.8 2.1 0.083
09:04 1023 30.21 852 25.16 1.8 35.2 68 -3.4 25.8 2.191 0.086
09:05 1023 30.21 852 25.16 1.8 35.2 68 -3.6 25.5 2.077 0.082
09:06 1023 30.21 852 25.16 1.8 35.2 68 -3.5 25.7 2.032 0.08
09:07 1023 30.21 852 25.16 1.8 35.2 67 -3.8 25.2 1.969 0.078
09:08 1023 30.21 852 25.16 1.8 35.2 68 -3.4 25.8 2.077 0.082
09:09 1023 30.21 852 25.16 1.8 35.3 68 -3.5 25.7 2.229 0.088
09:10 1023 30.21 852 25.16 2 35.6 67 -3.4 25.9 2.403 0.095
09:11 1023 30.21 852 25.16 2.1 35.9 70 -2.8 26.9 2.477 0.098
09:12 1023 30.21 852 25.16 2.2 36 66 -3.5 25.7 2.562 0.101
09:13 1023 30.21 852 25.16 2.4 36.2 65 -3.6 25.6 2.702 0.106
09:14 1023 30.21 852 25.16 2.5 36.6 66 -3.3 26.1 2.844 0.112
09:15 1023 30.21 852 25.16 2.7 36.8 62 -3.8 25.2 2.927 0.115
09:16 1023 30.21 852 25.16 2.7 36.9 63 -3.6 25.5 2.977 0.117
09:17 1023 30.21 852 25.16 2.7 36.8 65 -3.2 26.2 3.085 0.121
09:18 1023 30.21 852 25.16 2.7 36.9 63 -3.6 25.5 3.101 0.122
09:19 1023 30.21 852 25.16 2.7 36.8 67 -2.8 26.9 3.145 0.124
09:20 1023 30.21 852 25.16 2.7 36.8 63 -3.6 25.6 3.19 0.126
09:21 1023 30.21 852 25.16 2.7 36.9 66 -2.9 26.7 3.24 0.128
09:22 1023 30.21 852 25.16 2.9 37.2 64 -3.3 26 3.415 0.134
09:23 1023 30.21 852 25.16 3 37.3 64 -3.2 26.3 3.443 0.136
09:24 1023 30.21 852 25.16 3 37.4 65 -3 26.6 3.42 0.135
09:25 1023 30.21 852 25.16 3.1 37.5 62 -3.5 25.7 3.51 0.138
09:26 1023 30.21 852 25.16 3 37.5 65 -2.8 26.9 3.465 0.136
09:27 1023 30.21 852 25.16 3.1 37.5 66 -2.7 27.1 3.526 0.139
09:28 1023 30.21 852 25.16 3.1 37.6 62 -3.4 25.8 3.582 0.141
09:29 1023 30.21 852 25.16 3.2 37.7 66 -2.6 27.2 3.662 0.144
09:30 1023 30.21 852 25.16 3.3 37.9 64 -2.8 26.9 3.752 0.148
09:31 1023 30.21 852 25.16 3.3 38 60 -3.8 25.2 3.774 0.149
09:32 1023 30.21 852 25.16 3.4 38 62 -3.3 26.1 3.689 0.145
09:33 1023 30.21 852 25.16 3.3 38 59 -3.9 25 3.682 0.145
09:34 1023 30.21 852 25.16 3.2 37.8 61 -3.5 25.7 3.676 0.145
09:35 1023 30.21 852 25.16 3.3 37.9 62 -3.2 26.2 3.732 0.147
09:36 1023 30.21 852 25.16 3.3 38 61 -3.4 26 3.725 0.147
09:37 1023 30.21 852 25.16 3.4 38.1 58 -4.1 24.6 3.713 0.146
09:38 1023 30.21 852 25.16 3.4 38 64 -2.9 26.8 3.696 0.146
09:39 1023 30.21 852 25.16 3.4 38.2 59 -3.9 25 3.767 0.148
09:40 1023 30.21 852 25.16 3.5 38.3 65 -2.5 27.4 3.807 0.15
09:41 1023 30.21 852 25.16 3.6 38.5 59 -3.7 25.4 3.954 0.156
09:42 1023 30.21 852 25.16 3.8 38.8 59 -3.4 25.8 4.076 0.16
09:43 1023 30.21 852 25.16 3.9 39 62 -2.7 27.1 4.258 0.168
09:44 1023 30.21 852 25.16 4.1 39.3 57 -3.7 25.3 4.376 0.172
09:45 1023 30.21 852 25.16 4.1 39.4 60 -2.9 26.8 4.392 0.173
09:46 1023 30.21 852 25.16 4.2 39.5 55 -4 24.8 4.516 0.178
09:47 1023 30.21 852 25.16 4.1 39.4 56 -3.8 25.2 4.437 0.175
09:48 1023 30.21 852 25.16 4 39.2 57 -3.6 25.4 4.367 0.172
09:49 1023 30.21 852 25.16 4 39.2 59 -3.3 26 4.367 0.172
09:50 1023 30.21 852 25.16 4 39.3 56 -3.9 24.9 4.413 0.174
09:51 1023 30.21 852 25.16 4 39.3 58 -3.4 25.9 4.445 0.175
09:52 1023 30.21 852 25.16 4.1 39.3 55 -4.2 24.4 4.474 0.176
09:53 1023 30.21 852 25.16 4 39.2 58 -3.4 25.8 4.451 0.175
09:54 1023 30.21 852 25.16 4.1 39.3 58 -3.4 25.9 4.495 0.177
09:55 1023 30.21 852 25.16 4.2 39.6 56 -3.7 25.4 4.614 0.182
09:56 1023 30.21 852 25.16 4.3 39.7 57 -3.5 25.7 4.637 0.183
09:57 1023 30.21 852 25.16 4.3 39.7 57 -3.6 25.5 4.665 0.184
09:58 1023 30.21 852 25.16 4.3 39.8 54 -4.2 24.4 4.749 0.187
09:59 1023 30.21 852 25.16 4.4 39.9 55 -3.8 25.1 4.754 0.187
10:00 1023 30.21 852 25.16 4.4 39.9 57 -3.4 25.8 4.815 0.19
10:01 1023 30.21 852 25.16 4.5 40.1 53 -4.2 24.4 4.838 0.19
10:02 1023 30.21 852 25.16 4.5 40.1 55 -3.6 25.4 4.792 0.189
10:03 1023 30.21 852 25.16 4.6 40.3 54 -3.9 25 4.876 0.192
10:04 1023 30.21 852 25.16 4.7 40.5 54 -3.9 25 5.006 0.197
10:05 1023 30.21 852 25.16 4.9 40.8 54 -3.6 25.6 5.17 0.204
10:06 1023 30.21 852 25.16 4.9 40.9 51 -4.3 24.2 5.254 0.207
10:07 1023 30.21 852 25.16 4.9 40.9 51 -4.2 24.4 5.299 0.209
10:08 1023 30.21 852 25.16 5.1 41.1 53 -3.8 25.2 5.377 0.212
10:09 1023 30.21 852 25.16 5.1 41.2 51 -4.1 24.6 5.455 0.215
10:10 1023 30.21 852 25.16 5.2 41.4 52 -3.7 25.3 5.54 0.218
10:11 1023 30.21 852 25.16 5.2 41.4 51 -4.1 24.6 5.493 0.216
10:12 1023 30.21 852 25.16 5.2 41.4 49 -4.5 23.9 5.487 0.216
10:13 1023 30.21 852 25.16 5.2 41.4 50 -4.4 24.1 5.549 0.218
10:14 1023 30.21 852 25.16 5.2 41.3 50 -4.5 23.9 5.57 0.219
10:15 1023 30.21 852 25.16 5.1 41.2 50 -4.5 23.9 5.491 0.216
10:16 1023 30.21 852 25.16 5.1 41.2 52 -3.8 25.1 5.542 0.218
10:17 1023 30.21 852 25.16 5.3 41.5 50 -4.4 24.1 5.699 0.224
10:18 1023 30.21 852 25.16 5.5 41.8 47 -4.8 23.3 5.75 0.226
10:19 1022 30.18 852 25.16 5.5 42 47 -5 23.1 5.636 0.222
10:20 1022 30.18 852 25.16 5.5 42 47 -4.9 23.1 5.568 0.219
10:21 1022 30.18 852 25.16 5.6 42.2 50 -4 24.7 5.641 0.222
10:22 1022 30.18 852 25.16 5.8 42.4 46 -4.9 23.2 5.726 0.225
10:23 1022 30.18 852 25.16 5.8 42.5 49 -4.1 24.7 5.674 0.223
10:24 1022 30.18 852 25.16 5.7 42.3 48 -4.5 23.9 5.691 0.224
10:25 1022 30.18 852 25.16 5.7 42.3 48 -4.5 24 5.657 0.223
10:26 1022 30.18 852 25.16 5.8 42.4 47 -4.6 23.6 5.751 0.226
10:27 1022 30.18 852 25.16 5.8 42.5 45 -5.1 22.8 5.785 0.228
10:28 1022 30.18 852 25.16 5.8 42.4 45 -5.1 22.8 5.751 0.226
10:29 1022 30.18 852 25.16 5.8 42.5 46 -5 22.9 5.834 0.23
10:30 1022 30.18 852 25.16 5.9 42.6 44 -5.4 22.3 5.947 0.234
10:31 1022 30.18 852 25.16 5.9 42.7 46 -4.9 23.2 5.981 0.235
10:32 1022 30.18 852 25.16 6 42.8 44 -5.3 22.5 6.058 0.239
10:33 1022 30.18 852 25.16 6.1 42.9 45 -5 23.1 6.08 0.239
10:34 1022 30.18 852 25.16 6.1 43 45 -5 23.1 6.102 0.24
10:35 1022 30.18 852 25.16 6.1 42.9 45 -5 22.9 6.083 0.239
10:36 1022 30.18 852 25.16 6.2 43.1 45 -4.8 23.4 6.157 0.242
10:37 1022 30.18 852 25.16 6.2 43.1 43 -5.6 21.9 6.105 0.24
10:38 1022 30.18 852 25.16 6.2 43.1 43 -5.4 22.4 6.008 0.237
10:39 1022 30.18 852 25.16 6.2 43.2 43 -5.4 22.2 6.081 0.239
10:40 1022 30.18 852 25.16 6.2 43.2 43 -5.6 21.9 6.03 0.237
10:41 1022 30.18 851 25.13 6.1 43 46 -4.5 23.9 6.052 0.238
10:42 1022 30.18 851 25.13 6.2 43.2 44 -5.2 22.7 6.193 0.244
10:43 1022 30.18 851 25.13 6.3 43.4 46 -4.4 24.1 6.294 0.248
10:44 1022 30.18 851 25.13 6.5 43.7 44 -4.9 23.1 6.379 0.251
10:45 1022 30.18 851 25.13 6.4 43.5 44 -4.9 23.2 6.316 0.249
10:46 1022 30.18 851 25.13 6.3 43.4 47 -4.3 24.3 6.361 0.25
10:47 1022 30.18 851 25.13 6.3 43.3 43 -5.3 22.5 6.496 0.256
10:48 1022 30.18 851 25.13 6.3 43.4 47 -4.3 24.3 6.474 0.255
10:49 1022 30.18 851 25.13 6.4 43.5 49 -3.5 25.7 6.524 0.257
10:50 1022 30.18 851 25.13 6.4 43.5 46 -4.5 23.9 6.462 0.254
10:51 1022 30.18 851 25.13 6.3 43.3 44 -5.1 22.8 6.337 0.249
10:52 1022 30.18 851 25.13 6.2 43.1 48 -4 24.7 6.224 0.245
10:53 1022 30.18 851 25.13 6.2 43.1 44 -5.3 22.5 6.325 0.249
10:54 1022 30.18 851 25.13 6.2 43.1 46 -4.7 23.6 6.28 0.247
10:55 1022 30.18 851 25.13 6.1 43 47 -4.4 24.1 6.216 0.245
10:56 1022 30.18 851 25.13 6.1 42.9 46 -4.8 23.4 6.278 0.247
10:57 1022 30.18 851 25.13 6.1 42.9 44 -5.2 22.6 6.21 0.244
10:58 1022 30.18 851 25.13 6 42.9 44 -5.3 22.4 6.202 0.244
10:59 1022 30.18 851 25.13 6.1 43 46 -4.5 23.9 6.365 0.251
11:00 1022 30.18 851 25.13 6.3 43.3 48 -3.9 25 6.524 0.257
11:01 1022 30.18 851 25.13 6.4 43.4 46 -4.5 23.8 6.51 0.256
11:02 1022 30.18 851 25.13 6.4 43.4 43 -5.2 22.7 6.447 0.254
11:03 1022 30.18 851 25.13 6.3 43.3 45 -4.8 23.3 6.402 0.252
11:04 1022 30.18 851 25.13 6.3 43.3 48 -3.9 25.1 6.457 0.254
11:05 1022 30.18 851 25.13 6.4 43.6 42 -5.5 22.1 6.643 0.262
11:06 1022 30.18 851 25.13 6.5 43.7 44 -4.9 23.1 6.638 0.261
11:07 1022 30.18 851 25.13 6.5 43.8 42 -5.4 22.3 6.642 0.261
11:08 1022 30.18 851 25.13 6.5 43.7 42 -5.6 21.9 6.591 0.259
11:09 1022 30.18 851 25.13 6.5 43.7 44 -5 23 6.585 0.259
11:10 1022 30.18 851 25.13 6.5 43.7 46 -4.3 24.3 6.703 0.264
11:11 1022 30.18 851 25.13 6.6 43.8 46 -4.3 24.3 6.77 0.267
11:12 1022 30.18 851 25.13 6.5 43.8 45 -4.5 23.9 6.68 0.263
11:13 1022 30.18 851 25.13 6.6 43.8 47 -4.1 24.7 6.809 0.268
11:14 1022 30.18 851 25.13 6.8 44.2 44 -4.5 23.8 7.02 0.276
11:15 1022 30.18 851 25.13 6.9 44.5 44 -4.6 23.8 7.06 0.278
11:16 1022 30.18 851 25.13 6.9 44.4 44 -4.5 23.9 6.961 0.274
11:17 1022 30.18 851 25.13 6.7 44.1 48 -3.6 25.6 6.927 0.273
11:18 1022 30.18 851 25.13 6.7 44.1 45 -4.3 24.3 6.983 0.275
11:19 1022 30.18 851 25.13 6.8 44.2 44 -4.8 23.4 7.01 0.276
11:20 1022 30.18 851 25.13 6.7 44.1 42 -5.2 22.7 6.904 0.272
11:21 1022 30.18 851 25.13 6.7 44.1 43 -5 23 6.785 0.267
11:22 1022 30.18 851 25.13 6.7 44.1 42 -5.3 22.4 6.869 0.27
11:23 1022 30.18 851 25.13 6.6 43.9 42 -5.3 22.5 6.897 0.272
11:24 1022 30.18 851 25.13 6.4 43.6 42 -5.7 21.8 6.767 0.266
11:25 1022 30.18 851 25.13 6.4 43.6 42 -5.5 22.2 6.816 0.268
11:26 1022 30.18 851 25.13 6.5 43.7 47 -3.9 24.9 6.907 0.272
11:27 1022 30.18 851 25.13 6.6 43.9 44 -4.7 23.6 7 0.276
11:28 1022 30.18 851 25.13 6.8 44.3 43 -5 23 7.08 0.279
11:29 1022 30.18 851 25.13 6.9 44.3 42 -5.1 22.7 7.05 0.278
11:30 1022 30.18 851 25.13 6.8 44.3 43 -5 23 6.94 0.273
11:31 1022 30.18 851 25.13 6.9 44.3 46 -4.1 24.7 7.02 0.276
11:32 1022 30.18 851 25.13 7 44.6 41 -5.2 22.7 7.23 0.285
11:33 1022 30.18 851 25.13 7 44.7 45 -4.2 24.5 7.26 0.286
11:34 1022 30.18 851 25.13 7.2 44.9 45 -4 24.8 7.38 0.291
11:35 1022 30.18 851 25.13 7.2 45 42 -4.8 23.3 7.39 0.291
11:36 1022 30.18 851 25.13 7.2 44.9 45 -4 24.9 7.35 0.289
11:37 1022 30.18 851 25.13 7.2 44.9 43 -4.7 23.6 7.34 0.289
11:38 1022 30.18 851 25.13 7.2 44.9 45 -4.1 24.7 7.24 0.285
11:39 1022 30.18 851 25.13 7.2 44.9 43 -4.4 24 7.24 0.285
11:40 1022 30.18 851 25.13 7.1 44.8 45 -3.9 25 7.22 0.284
11:41 1022 30.18 851 25.13 7.2 44.9 45 -3.8 25.1 7.36 0.29
11:42 1022 30.18 851 25.13 7.3 45.2 44 -4 24.8 7.58 0.298
11:43 1021 30.15 851 25.13 7.5 45.4 41 -4.9 23.3 7.63 0.3
11:44 1022 30.18 851 25.13 7.4 45.2 41 -4.9 23.2 7.6 0.299
11:45 1022 30.18 851 25.13 7.3 45.2 42 -4.8 23.3 7.47 0.294
11:46 1022 30.18 851 25.13 7.3 45.1 40 -5.5 22 7.41 0.292
11:47 1022 30.18 851 25.13 7.3 45.1 44 -4.2 24.4 7.39 0.291
11:48 1022 30.18 851 25.13 7.3 45.2 43 -4.3 24.3 7.56 0.298
11:49 1021 30.15 851 25.13 7.5 45.4 44 -4.1 24.6 7.69 0.303
11:50 1021 30.15 851 25.13 7.5 45.6 40 -5.1 22.8 7.78 0.306
11:51 1021 30.15 851 25.13 7.5 45.5 40 -5.1 22.9 7.69 0.303
11:52 1021 30.15 851 25.13 7.4 45.4 43 -4.2 24.5 7.59 0.299
11:53 1021 30.15 851 25.13 7.4 45.4 42 -4.5 23.9 7.53 0.296
11:54 1021 30.15 851 25.13 7.5 45.4 43 -4.4 24 7.55 0.297
11:55 1021 30.15 851 25.13 7.3 45.2 44 -4.1 24.7 7.51 0.296
11:56 1021 30.15 851 25.13 7.3 45.2 46 -3.4 25.9 7.64 0.301
11:57 1021 30.15 851 25.13 7.6 45.6 44 -3.8 25.2 7.9 0.311
11:58 1021 30.15 851 25.13 7.8 46 40 -5.1 22.8 8.16 0.321
11:59 1021 30.15 851 25.13 7.8 46 41 -4.7 23.5 8.17 0.322
12:00 1021 30.15 851 25.13 7.6 45.7 48 -2.8 27 8.02 0.316
12:01 1021 30.15 851 25.13 7.6 45.7 40 -5 23.1 8.03 0.316
12:02 1021 30.15 851 25.13 7.7 45.8 45 -3.4 25.9 8.06 0.317
12:03 1021 30.15 851 25.13 7.8 46 41 -4.5 23.9 8.09 0.319
12:04 1021 30.15 851 25.13 7.7 45.8 40 -4.9 23.1 7.95 0.313
12:05 1021 30.15 850 25.1 7.5 45.5 41 -5 22.9 7.77 0.306
12:06 1021 30.15 850 25.1 7.5 45.5 44 -4.1 24.6 7.68 0.302
12:07 1021 30.15 850 25.1 7.6 45.6 45 -3.4 25.8 7.73 0.304
12:08 1021 30.15 850 25.1 7.6 45.6 42 -4.4 24.1 7.71 0.304
12:09 1021 30.15 850 25.1 7.6 45.6 44 -4 24.9 7.71 0.304
12:10 1021 30.15 850 25.1 7.6 45.6 44 -3.9 25 7.74 0.305
12:11 1021 30.15 850 25.1 7.6 45.7 46 -3.3 26.1 7.76 0.306
12:12 1021 30.15 850 25.1 7.7 45.8 45 -3.6 25.6 7.85 0.309
12:13 1021 30.15 850 25.1 7.7 45.8 42 -4.5 23.9 7.8 0.307
12:14 1021 30.15 850 25.1 7.6 45.7 45 -3.6 25.5 7.87 0.31
12:15 1021 30.15 850 25.1 7.8 46 44 -3.7 25.4 8.16 0.321
12:16 1021 30.15 850 25.1 7.8 46.1 45 -3.3 26 8.16 0.321
12:17 1021 30.15 850 25.1 7.9 46.2 46 -2.9 26.8 8.21 0.323
12:18 1021 30.15 850 25.1 7.9 46.1 40 -5 23 8.07 0.318
12:19 1021 30.15 850 25.1 7.7 45.9 42 -4.3 24.2 7.93 0.312
12:20 1021 30.15 850 25.1 7.7 45.9 43 -4.2 24.5 7.9 0.311
12:21 1021 30.15 850 25.1 7.7 45.8 41 -4.9 23.1 7.82 0.308
12:22 1021 30.15 850 25.1 7.6 45.7 48 -2.7 27.1 7.7 0.303
12:23 1021 30.15 850 25.1 7.7 45.8 45 -3.6 25.5 8.04 0.317
12:24 1021 30.15 850 25.1 7.9 46.2 46 -3 26.6 8.16 0.321
12:25 1021 30.15 850 25.1 8 46.5 42 -4.2 24.4 8.25 0.325
12:26 1021 30.15 850 25.1 8 46.4 40 -4.9 23.2 8.22 0.324
12:27 1021 30.15 850 25.1 8 46.3 40 -4.9 23.2 8.16 0.321
12:28 1021 30.15 850 25.1 7.9 46.2 40 -4.9 23.2 7.96 0.313
12:29 1021 30.15 850 25.1 7.9 46.1 39 -5.3 22.5 7.98 0.314
12:30 1021 30.15 850 25.1 8 46.3 40 -4.7 23.5 8.22 0.324
12:31 1021 30.15 850 25.1 8.1 46.6 42 -3.9 25 8.46 0.333
12:32 1021 30.15 850 25.1 8.2 46.8 40 -4.6 23.6 8.5 0.335
12:33 1021 30.15 850 25.1 8.1 46.5 41 -4.2 24.4 8.41 0.331
12:34 1021 30.15 850 25.1 8 46.5 44 -3.4 25.9 8.46 0.333
12:35 1021 30.15 850 25.1 8.2 46.7 42 -4 24.8 8.54 0.336
12:36 1021 30.15 850 25.1 8.2 46.8 43 -3.7 25.4 8.62 0.339
12:37 1021 30.15 850 25.1 8.4 47.1 39 -4.6 23.7 8.64 0.34
12:38 1021 30.15 850 25.1 8.3 47 38 -5.2 22.6 8.48 0.334
12:39 1021 30.15 850 25.1 8.1 46.7 41 -4.2 24.5 8.33 0.328
12:40 1021 30.15 850 25.1 8.2 46.7 44 -3.3 26.1 8.39 0.33
12:41 1021 30.15 850 25.1 8.3 46.9 44 -3.2 26.2 8.62 0.339
12:42 1021 30.15 850 25.1 8.5 47.3 40 -4.3 24.2 8.79 0.346
12:43 1021 30.15 850 25.1 8.6 47.5 44 -2.9 26.7 8.93 0.352
12:44 1021 30.15 850 25.1 8.7 47.7 37 -5 22.9 8.9 0.35
12:45 1021 30.15 850 25.1 8.6 47.4 39 -4.6 23.8 8.66 0.341
12:46 1021 30.15 850 25.1 8.5 47.3 39 -4.6 23.7 8.67 0.341
12:47 1021 30.15 850 25.1 8.5 47.3 39 -4.8 23.3 8.59 0.338
12:48 1021 30.15 850 25.1 8.5 47.3 44 -3.1 26.4 8.66 0.341
12:49 1021 30.15 850 25.1 8.7 47.6 43 -3 26.5 8.95 0.352
12:50 1021 30.15 850 25.1 8.8 47.9 37 -5.1 22.8 9.18 0.361
12:51 1021 30.15 850 25.1 8.8 47.8 41 -3.6 25.5 9.26 0.365
12:52 1021 30.15 850 25.1 9 48.1 39 -4.3 24.2 9.42 0.371
12:53 1021 30.15 850 25.1 9.1 48.3 38 -4.6 23.6 9.42 0.371
12:54 1021 30.15 850 25.1 9.1 48.4 40 -3.7 25.3 9.32 0.367
12:55 1021 30.15 850 25.1 9 48.2 39 -4.3 24.2 9.25 0.364
12:56 1021 30.15 850 25.1 8.8 47.8 39 -4.4 24.2 9.1 0.358
12:57 1021 30.15 850 25.1 8.7 47.6 39 -4.6 23.7 8.94 0.352
12:58 1021 30.15 850 25.1 8.5 47.3 37 -5.3 22.5 8.78 0.346
12:59 1021 30.15 850 25.1 8.3 46.9 42 -3.9 24.9 8.63 0.34
13:00 1021 30.15 850 25.1 8.2 46.8 40 -4.4 24 8.57 0.337
13:01 1021 30.15 850 25.1 8.3 46.9 39 -4.7 23.5 8.61 0.339
13:02 1021 30.15 850 25.1 8.3 47 45 -2.9 26.7 8.63 0.34
13:03 1021 30.15 850 25.1 8.4 47.1 42 -3.7 25.4 8.72 0.343
13:04 1021 30.15 850 25.1 8.3 46.9 39 -4.9 23.1 8.7 0.343
13:05 1021 30.15 850 25.1 8.2 46.7 39 -5 23.1 8.51 0.335
13:06 1021 30.15 850 25.1 8 46.5 43 -3.6 25.4 8.42 0.331
13:07 1021 30.15 850 25.1 8.2 46.7 38 -5.4 22.3 8.55 0.337
13:08 1021 30.15 850 25.1 8.2 46.8 42 -3.9 24.9 8.57 0.337
13:09 1021 30.15 850 25.1 8.4 47 36 -5.7 21.7 8.69 0.342
13:10 1021 30.15 850 25.1 8.3 46.9 41 -4.2 24.4 8.61 0.339
13:11 1021 30.15 850 25.1 8.3 46.9 37 -5.5 22.1 8.59 0.338
13:12 1021 30.15 850 25.1 8.2 46.7 40 -4.7 23.6 8.59 0.338
13:13 1021 30.15 850 25.1 8.2 46.8 37 -5.5 22.2 8.61 0.339
13:14 1021 30.15 850 25.1 8.1 46.6 38 -5.2 22.6 8.64 0.34
13:15 1021 30.15 850 25.1 8.2 46.8 39 -5 22.9 8.7 0.343
13:16 1021 30.15 850 25.1 8.4 47.1 39 -4.8 23.4 8.83 0.348
13:17 1021 30.15 850 25.1 8.5 47.4 42 -3.6 25.5 9.07 0.357
13:18 1021 30.15 850 25.1 8.9 48 38 -4.7 23.5 9.4 0.37
13:19 1021 30.15 850 25.1 9.1 48.3 39 -4.1 24.7 9.32 0.367
13:20 1021 30.15 850 25.1 9.1 48.3 37 -4.7 23.6 9.26 0.365
13:21 1021 30.15 850 25.1 9.1 48.4 36 -5.2 22.7 9.2 0.362
13:22 1020 30.12 850 25.1 9 48.1 36 -5.5 22.2 8.98 0.354
13:23 1020 30.12 850 25.1 8.8 47.8 38 -4.7 23.6 8.91 0.351
13:24 1020 30.12 850 25.1 8.8 47.8 37 -5 23 9.01 0.355
13:25 1021 30.15 850 25.1 8.8 47.9 37 -5 23.1 8.96 0.353
13:26 1020 30.12 850 25.1 8.9 48 38 -4.8 23.3 9.05 0.356
13:27 1020 30.12 850 25.1 8.9 48.1 37 -5.1 22.9 9.08 0.357
13:28 1020 30.12 850 25.1 8.9 48.1 36 -5.5 22.2 8.95 0.352
13:29 1020 30.12 850 25.1 8.8 47.9 39 -4.5 23.9 8.84 0.348
13:30 1020 30.12 850 25.1 8.9 48 36 -5.5 22.1 8.94 0.352
13:31 1020 30.12 850 25.1 8.8 47.8 36 -5.4 22.2 8.91 0.351
13:32 1020 30.12 850 25.1 8.8 47.8 38 -4.8 23.4 8.93 0.352
13:33 1020 30.12 849 25.07 9 48.1 38 -4.7 23.5 9.16 0.361
13:34 1020 30.12 849 25.07 9 48.3 38 -4.5 23.9 9.36 0.369
13:35 1020 30.12 849 25.07 9.1 48.4 40 -3.7 25.4 9.47 0.373
13:36 1020 30.12 849 25.07 9.3 48.7 39 -3.8 25.1 9.69 0.381
13:37 1020 30.12 849 25.07 9.6 49.3 35 -5.3 22.5 9.93 0.391
13:38 1020 30.12 849 25.07 9.8 49.6 35 -5 22.9 9.98 0.393
13:39 1020 30.12 849 25.07 9.8 49.6 36 -4.4 24.1 10.06 0.396
13:40 1020 30.12 849 25.07 9.8 49.7 36 -4.5 23.9 10.05 0.396
13:41 1020 30.12 849 25.07 9.9 49.7 36 -4.6 23.6 10.02 0.394
13:42 1020 30.12 849 25.07 9.8 49.6 34 -5.5 22.1 9.97 0.393
13:43 1020 30.12 849 25.07 9.6 49.3 39 -3.7 25.3 9.79 0.385
13:44 1020 30.12 849 25.07 9.6 49.3 39 -3.6 25.5 9.82 0.387
13:45 1020 30.12 849 25.07 9.7 49.4 36 -4.7 23.5 9.85 0.388
13:46 1020 30.12 849 25.07 9.7 49.4 37 -4.3 24.3 9.81 0.386
13:47 1020 30.12 849 25.07 9.7 49.5 33 -5.7 21.7 9.87 0.389
13:48 1020 30.12 849 25.07 9.8 49.6 40 -3.3 26 9.73 0.383
13:49 1020 30.12 849 25.07 9.8 49.6 35 -4.8 23.4 9.81 0.386
13:50 1020 30.12 849 25.07 9.8 49.6 35 -5 23 9.73 0.383
13:51 1020 30.12 849 25.07 9.7 49.4 38 -3.9 24.9 9.58 0.377
13:52 1020 30.12 849 25.07 9.5 49 36 -4.8 23.3 9.52 0.375
13:53 1020 30.12 849 25.07 9.3 48.7 36 -4.9 23.1 9.34 0.368
13:54 1020 30.12 849 25.07 9.2 48.6 36 -5.2 22.7 9.34 0.368
13:55 1020 30.12 849 25.07 9.3 48.8 39 -4 24.9 9.45 0.372
13:56 1020 30.12 849 25.07 9.4 48.8 35 -5.1 22.7 9.55 0.376
13:57 1020 30.12 849 25.07 9.2 48.6 36 -4.9 23.1 9.62 0.379
13:58 1020 30.12 849 25.07 9.2 48.6 34 -5.6 21.8 9.61 0.378
13:59 1020 30.12 849 25.07 9.2 48.5 35 -5.3 22.4 9.64 0.38
14:00 1020 30.12 849 25.07 9.2 48.6 35 -5.5 22.1 9.86 0.388
14:01 1020 30.12 849 25.07 9.4 48.9 35 -5.5 22.2 10.02 0.394
14:02 1020 30.12 849 25.07 9.5 49.1 37 -4.6 23.8 10.12 0.398
14:03 1020 30.12 849 25.07 9.8 49.7 33 -5.5 22 10.37 0.408
14:04 1020 30.12 849 25.07 10 50 34 -5.2 22.6 10.28 0.405
14:05 1020 30.12 849 25.07 9.9 49.7 35 -4.7 23.6 10.03 0.395
14:06 1020 30.12 849 25.07 9.6 49.4 35 -5 23 9.81 0.386
14:07 1020 30.12 849 25.07 9.5 49 36 -4.8 23.3 9.82 0.387
14:08 1020 30.12 849 25.07 9.4 49 36 -4.9 23.1 9.94 0.391
14:09 1020 30.12 849 25.07 9.4 49 35 -5.3 22.5 9.99 0.393
14:10 1020 30.12 849 25.07 9.5 49 34 -5.5 22 10.06 0.396
14:11 1020 30.12 849 25.07 9.5 49.1 33 -5.8 21.5 10.07 0.396
14:12 1020 30.12 849 25.07 9.5 49.1 34 -5.7 21.8 10.01 0.394
14:13 1020 30.12 849 25.07 9.6 49.3 34 -5.5 22.2 10.08 0.397
14:14 1020 30.12 849 25.07 9.7 49.4 36 -4.5 23.9 10.07 0.396
14:15 1020 30.12 849 25.07 9.7 49.4 35 -5 23 9.89 0.389
14:16 1020 30.12 849 25.07 9.6 49.3 34 -5.6 21.9 9.9 0.39
14:17 1020 30.12 849 25.07 9.6 49.2 35 -5.1 22.9 9.86 0.388
14:18 1020 30.12 849 25.07 9.5 49.1 38 -4 24.8 9.73 0.383
14:19 1020 30.12 849 25.07 9.5 49.1 36 -4.8 23.3 9.73 0.383
14:20 1019 30.09 849 25.07 9.5 49.1 35 -5.1 22.8 9.7 0.382
14:21 1019 30.09 849 25.07 9.5 49 34 -5.7 21.8 9.75 0.384
14:22 1019 30.09 849 25.07 9.5 49.2 38 -4.1 24.5 9.93 0.391
14:23 1019 30.09 849 25.07 9.7 49.4 35 -5 23 10.16 0.4
14:24 1019 30.09 849 25.07 9.8 49.6 38 -3.7 25.3 10.22 0.402
14:25 1019 30.09 849 25.07 9.9 49.8 33 -5.4 22.3 10.31 0.406
14:26 1019 30.09 849 25.07 10 50 36 -4.4 24.2 10.28 0.405
14:27 1019 30.09 849 25.07 10.1 50.2 33 -5.6 22 10.33 0.407
14:28 1019 30.09 849 25.07 10.1 50.1 33 -5.4 22.2 10.2 0.402
14:29 1019 30.09 849 25.07 10 49.9 33 -5.7 21.7 10.01 0.394
14:30 1019 30.09 849 25.07 9.8 49.7 35 -4.7 23.5 9.9 0.39
14:31 1019 30.09 849 25.07 9.8 49.7 37 -4.3 24.3 9.99 0.393
14:32 1019 30.09 849 25.07 10.1 50.1 40 -2.9 26.7 10.29 0.405
14:33 1019 30.09 849 25.07 10.3 50.6 34 -5 23 10.66 0.42
14:34 1019 30.09 849 25.07 10.3 50.6 34 -4.8 23.3 10.77 0.424
14:35 1019 30.09 849 25.07 10.3 50.6 32 -5.4 22.2 10.68 0.42
14:36 1019 30.09 849 25.07 10.3 50.6 35 -4.6 23.7 10.62 0.418
14:37 1019 30.09 849 25.07 10.2 50.4 33 -5.1 22.8 10.35 0.407
14:38 1019 30.09 849 25.07 10 50 34 -5.1 22.8 10.04 0.395
14:39 1019 30.09 849 25.07 9.8 49.7 36 -4.6 23.7 9.89 0.389
14:40 1019 30.09 849 25.07 9.7 49.5 39 -3.6 25.6 9.85 0.388
14:41 1019 30.09 849 25.07 9.6 49.2 38 -4.1 24.6 9.78 0.385
14:42 1019 30.09 849 25.07 9.4 49 37 -4.6 23.7 9.6 0.378
14:43 1019 30.09 849 25.07 9.3 48.7 37 -4.6 23.6 9.47 0.373
14:44 1019 30.09 849 25.07 9.2 48.6 36 -5 23.1 9.47 0.373
14:45 1019 30.09 849 25.07 9.3 48.8 38 -4.2 24.5 9.64 0.38
14:46 1019 30.09 849 25.07 9.5 49.1 38 -4.2 24.5 9.73 0.383
14:47 1019 30.09 849 25.07 9.5 49.2 35 -5.3 22.4 9.78 0.385
14:48 1019 30.09 849 25.07 9.6 49.3 37 -4.5 23.9 9.9 0.39
14:49 1019 30.09 849 25.07 9.8 49.6 39 -3.6 25.5 10.14 0.399
14:50 1019 30.09 849 25.07 10 50 37 -4.1 24.6 10.29 0.405
14:51 1019 30.09 849 25.07 9.9 49.9 35 -4.9 23.1 10.12 0.398
14:52 1019 30.09 849 25.07 9.8 49.7 37 -4.2 24.4 9.99 0.393
14:53 1019 30.09 849 25.07 9.9 49.7 40 -3 26.5 10.13 0.399
14:54 1019 30.09 849 25.07 10.1 50.1 37 -3.8 25.2 10.34 0.407
14:55 1019 30.09 849 25.07 10.1 50.2 38 -3.5 25.7 10.35 0.407
14:56 1019 30.09 849 25.07 10.1 50.2 37 -3.9 24.9 10.34 0.407
14:57 1019 30.09 849 25.07 10.1 50.1 38 -3.6 25.5 10.3 0.406
14:58 1019 30.09 849 25.07 10 50 36 -4.2 24.4 10.2 0.402
14:59 1019 30.09 848 25.04 10 49.9 34 -5.3 22.4 10.05 0.396
15:00 1019 30.09 848 25.04 10 50 37 -3.9 25 9.99 0.393
15:01 1019 30.09 848 25.04 10.1 50.1 36 -4.3 24.2 10.17 0.4
15:02 1019 30.09 848 25.04 10.4 50.7 37 -3.8 25.2 10.4 0.409
15:03 1019 30.09 848 25.04 10.5 50.9 36 -3.8 25.2 10.51 0.414
15:04 1019 30.09 848 25.04 10.5 50.8 36 -4 24.8 10.57 0.416
15:05 1019 30.09 848 25.04 10.4 50.7 33 -5 23 10.5 0.413
15:06 1019 30.09 848 25.04 10.3 50.6 33 -5 23 10.35 0.407
15:07 1019 30.09 848 25.04 10.2 50.3 37 -3.9 25 10.26 0.404
15:08 1019 30.09 848 25.04 10.2 50.3 38 -3.5 25.7 10.23 0.403
15:09 1019 30.09 848 25.04 10.1 50.2 38 -3.7 25.4 10.19 0.401
15:10 1019 30.09 848 25.04 10.1 50.1 35 -4.7 23.5 10.23 0.403
15:11 1019 30.09 848 25.04 10.1 50.1 38 -3.6 25.6 10.25 0.404
15:12 1019 30.09 848 25.04 10.2 50.4 35 -4.6 23.8 10.42 0.41
15:13 1019 30.09 848 25.04 10.3 50.5 36 -4.1 24.6 10.45 0.411
15:14 1019 30.09 848 25.04 10.1 50.2 37 -4.1 24.7 10.21 0.402
15:15 1019 30.09 848 25.04 10 50 33 -5.4 22.2 10.23 0.403
15:16 1019 30.09 848 25.04 10.1 50.1 38 -3.5 25.7 10.16 0.4
15:17 1019 30.09 848 25.04 10.1 50.1 35 -4.8 23.4 10.14 0.399
15:18 1019 30.09 848 25.04 10.1 50.1 36 -4.2 24.4 10.09 0.397
15:19 1019 30.09 848 25.04 10 50 33 -5.4 22.2 10.05 0.396
15:20 1019 30.09 848 25.04 9.9 49.9 39 -3.4 25.8 10.07 0.396
15:21 1019 30.09 848 25.04 10.1 50.2 33 -5.4 22.3 10.26 0.404
15:22 1019 30.09 848 25.04 10.2 50.3 35 -4.5 23.9 10.17 0.4
15:23 1019 30.09 848 25.04 10.2 50.3 35 -4.4 24.1 10.28 0.405
15:24 1019 30.09 848 25.04 10.2 50.3 35 -4.7 23.5 10.31 0.406
15:25 1019 30.09 848 25.04 10.2 50.3 35 -4.7 23.6 10.3 0.406
15:26 1019 30.09 848 25.04 10.1 50.2 38 -3.6 25.5 10.29 0.405
15:27 1019 30.09 848 25.04 10.2 50.3 35 -4.8 23.4 10.38 0.409
15:28 1019 30.09 848 25.04 10.2 50.3 35 -4.7 23.6 10.48 0.413
15:29 1019 30.09 848 25.04 10.3 50.5 36 -4.2 24.4 10.77 0.424
15:30 1019 30.09 848 25.04 10.5 51 33 -5.1 22.8 11.06 0.435
15:31 1019 30.09 848 25.04 10.8 51.4 35 -3.9 25 11.19 0.441
15:32 1019 30.09 848 25.04 11 51.7 32 -5.2 22.6 11.36 0.447
15:33 1019 30.09 848 25.04 10.9 51.7 32 -5 22.9 11.4 0.449
15:34 1019 30.09 848 25.04 10.7 51.2 32 -5.2 22.6 11.16 0.439
15:35 1019 30.09 848 25.04 10.5 50.9 36 -4 24.9 10.97 0.432
15:36 1019 30.09 848 25.04 10.5 50.8 33 -5 23.1 10.95 0.431
15:37 1019 30.09 848 25.04 10.3 50.6 34 -4.7 23.5 10.84 0.427
15:38 1019 30.09 848 25.04 10.3 50.6 36 -3.9 24.9 10.8 0.425
15:39 1019 30.09 848 25.04 10.3 50.5 38 -3.5 25.8 10.62 0.418
15:40 1019 30.09 848 25.04 10.3 50.5 34 -4.8 23.4 10.45 0.411
15:41 1019 30.09 848 25.04 10.3 50.5 39 -2.9 26.8 10.33 0.407
15:42 1019 30.09 848 25.04 10.3 50.6 35 -4.5 24 10.41 0.41
15:43 1019 30.09 848 25.04 10.3 50.5 33 -5.1 22.8 10.29 0.405
15:44 1019 30.09 848 25.04 10.2 50.4 36 -4.1 24.6 10.29 0.405
15:45 1019 30.09 848 25.04 10.3 50.5 35 -4.5 23.8 10.4 0.409
15:46 1019 30.09 848 25.04 10.4 50.7 33 -5.3 22.5 10.43 0.411
15:47 1019 30.09 848 25.04 10.4 50.8 32 -5.4 22.3 10.39 0.409
15:48 1019 30.09 848 25.04 10.3 50.6 33 -5.2 22.6 10.34 0.407
15:49 1019 30.09 848 25.04 10.2 50.4 34 -5 23.1 10.44 0.411
15:50 1019 30.09 848 25.04 10 50.1 35 -4.8 23.4 10.33 0.407
15:51 1019 30.09 848 25.04 9.9 49.9 38 -3.7 25.3 10.42 0.41
15:52 1019 30.09 848 25.04 10.1 50.3 36 -4.1 24.7 10.69 0.421
15:53 1019 30.09 848 25.04 10.2 50.3 34 -4.8 23.4 10.73 0.422
15:54 1019 30.09 848 25.04 10.3 50.6 39 -3 26.6 10.88 0.428
15:55 1019 30.09 848 25.04 10.6 51.1 33 -5 23 11.21 0.441
15:56 1019 30.09 848 25.04 10.6 51.1 38 -3.3 26.1 11.2 0.441
15:57 1019 30.09 848 25.04 10.6 51.2 33 -4.9 23.1 11.16 0.439
15:58 1019 30.09 848 25.04 10.5 50.9 34 -4.8 23.3 10.86 0.428
15:59 1019 30.09 848 25.04 10.5 50.8 36 -3.9 25 10.75 0.423
16:00 1019 30.09 848 25.04 10.5 50.9 35 -4.3 24.3 10.78 0.424
16:01 1019 30.09 848 25.04 10.4 50.8 36 -3.8 25.1 10.62 0.418
16:02 1019 30.09 848 25.04 10.4 50.6 37 -3.7 25.3 10.59 0.417
16:03 1019 30.09 848 25.04 10.5 50.8 35 -4.4 24.1 10.66 0.42
16:04 1019 30.09 848 25.04 10.6 51 36 -3.8 25.2 10.62 0.418
16:05 1019 30.09 848 25.04 10.5 50.9 33 -4.9 23.1 10.49 0.413
16:06 1019 30.09 848 25.04 10.5 50.8 34 -4.9 23.2 10.48 0.413
16:07 1019 30.09 848 25.04 10.6 51 33 -4.9 23.3 10.53 0.415
16:08 1019 30.09 848 25.04 10.7 51.2 33 -4.9 23.2 10.63 0.419
16:09 1019 30.09 848 25.04 10.7 51.2 37 -3.4 25.8 10.73 0.422
16:10 1019 30.09 848 25.04 10.6 51 34 -4.7 23.6 10.8 0.425
16:11 1019 30.09 848 25.04 10.6 51.1 33 -4.9 23.1 10.84 0.427
16:12 1019 30.09 848 25.04 10.6 51 40 -2.6 27.3 10.82 0.426
16:13 1019 30.09 848 25.04 10.5 50.9 36 -3.8 25.2 10.81 0.426
16:14 1019 30.09 848 25.04 10.5 50.9 38 -3.1 26.4 10.79 0.425
16:15 1019 30.09 848 25.04 10.5 50.8 34 -4.6 23.8 10.85 0.427
16:16 1019 30.09 848 25.04 10.5 51 33 -4.9 23.2 10.93 0.43
16:17 1019 30.09 848 25.04 10.6 51.2 34 -4.7 23.5 10.97 0.432
16:18 1019 30.09 848 25.04 10.7 51.2 34 -4.3 24.2 10.84 0.427
16:19 1019 30.09 848 25.04 10.6 51.1 34 -4.6 23.8 10.7 0.421
16:20 1019 30.09 848 25.04 10.5 50.9 35 -4.3 24.3 10.56 0.416
16:21 1019 30.09 848 25.04 10.4 50.8 33 -5 23 10.48 0.413
16:22 1019 30.09 848 25.04 10.3 50.6 35 -4.4 24.1 10.37 0.408
16:23 1019 30.09 848 25.04 10.4 50.6 38 -3.3 26.1 10.53 0.415
16:24 1019 30.09 848 25.04 10.6 51 34 -4.6 23.8 10.71 0.422
16:25 1019 30.09 848 25.04 10.6 51.1 37 -3.3 26.1 10.69 0.421
16:26 1019 30.09 848 25.04 10.5 50.8 38 -3.3 26 10.58 0.417
16:27 1019 30.09 848 25.04 10.5 50.9 39 -2.9 26.8 10.69 0.421
16:28 1019 30.09 848 25.04 10.7 51.2 38 -3.1 26.5 10.84 0.427
16:29 1019 30.09 848 25.04 10.7 51.3 38 -3 26.6 10.86 0.428
16:30 1019 30.09 848 25.04 10.7 51.2 35 -4.2 24.4 10.82 0.426
16:31 1019 30.09 848 25.04 10.6 51 35 -4.4 24.1 10.66 0.42
16:32 1019 30.09 848 25.04 10.4 50.8 37 -3.6 25.5 10.52 0.414
16:33 1019 30.09 848 25.04 10.3 50.6 40 -2.7 27.1 10.45 0.411
16:34 1019 30.09 848 25.04 10.3 50.5 35 -4.6 23.8 10.38 0.409
16:35 1019 30.09 848 25.04 10.3 50.6 34 -4.7 23.6 10.38 0.409
16:36 1019 30.09 848 25.04 10.3 50.6 37 -3.7 25.4 10.44 0.411
16:37 1019 30.09 848 25.04 10.3 50.6 33 -5.1 22.8 10.49 0.413
16:38 1019 30.09 848 25.04 10.2 50.3 34 -5 23 10.28 0.405
16:39 1019 30.09 848 25.04 10 50 35 -4.7 23.5 10.19 0.401
16:40 1019 30.09 848 25.04 10 50 35 -4.6 23.7 10.26 0.404
16:41 1019 30.09 848 25.04 10.2 50.3 38 -3.6 25.5 10.43 0.411
16:42 1019 30.09 848 25.04 10.3 50.6 34 -4.9 23.2 10.56 0.416
16:43 1019 30.09 848 25.04 10.5 50.8 34 -4.6 23.8 10.65 0.419
16:44 1019 30.09 848 25.04 10.5 50.9 35 -4.4 24 10.75 0.423
16:45 1019 30.09 848 25.04 10.6 51 37 -3.6 25.5 10.78 0.424
16:46 1019 30.09 848 25.04 10.6 51.1 35 -4.4 24.2 10.72 0.422
16:47 1019 30.09 848 25.04 10.6 51.1 36 -3.9 25 10.78 0.424
16:48 1019 30.09 848 25.04 10.6 51 35 -4.3 24.2 10.78 0.424
16:49 1019 30.09 848 25.04 10.4 50.8 36 -3.9 24.9 10.71 0.422
16:50 1019 30.09 848 25.04 10.4 50.7 35 -4.4 24.1 10.71 0.422
16:51 1019 30.09 848 25.04 10.4 50.7 37 -3.7 25.4 10.82 0.426
16:52 1019 30.09 848 25.04 10.6 51.1 34 -4.7 23.5 10.95 0.431
16:53 1019 30.09 848 25.04 10.8 51.4 36 -3.7 25.4 11.1 0.437
16:54 1019 30.09 848 25.04 10.9 51.6 33 -4.5 23.8 11.18 0.44
16:55 1019 30.09 848 25.04 10.9 51.6 33 -4.9 23.2 11.22 0.442
16:56 1018 30.06 848 25.04 10.9 51.6 36 -3.5 25.7 11.22 0.442
16:57 1018 30.06 848 25.04 10.8 51.4 35 -4.2 24.4 11.13 0.438
16:58 1018 30.06 848 25.04 10.4 50.8 33 -5 23 10.84 0.427
16:59 1019 30.09 848 25.04 10.2 50.4 34 -4.8 23.4 10.65 0.419
17:00 1018 30.06 848 25.04 10 49.9 34 -5.3 22.5 10.43 0.411
17:01 1018 30.06 848 25.04 9.9 49.8 36 -4.4 24.1 10.3 0.406
17:02 1018 30.06 848 25.04 9.8 49.7 37 -4.2 24.4 10.3 0.406
17:03 1018 30.06 848 25.04 9.8 49.7 38 -3.7 25.4 10.27 0.404
17:04 1018 30.06 848 25.04 9.8 49.7 38 -4 24.9 10.2 0.402
17:05 1019 30.09 848 25.04 9.8 49.6 38 -3.9 25 10.06 0.396
17:06 1018 30.06 848 25.04 9.7 49.4 37 -4.4 24.1 9.94 0.391
17:07 1018 30.06 848 25.04 9.6 49.2 36 -4.8 23.4 9.82 0.387
17:08 1018 30.06 848 25.04 9.5 49 39 -3.7 25.3 9.75 0.384
17:09 1018 30.06 848 25.04 9.4 49 39 -3.7 25.4 9.74 0.383
17:10 1018 30.06 848 25.04 9.6 49.2 38 -3.9 24.9 9.86 0.388
17:11 1018 30.06 848 25.04 9.8 49.6 40 -3.3 26.1 9.94 0.391
17:12 1018 30.06 848 25.04 9.9 49.8 40 -2.9 26.8 10.05 0.396
17:13 1018 30.06 848 25.04 10.1 50.1 37 -4 24.8 10.19 0.401
17:14 1018 30.06 848 25.04 10.2 50.3 35 -4.6 23.7 10.31 0.406
17:15 1018 30.06 848 25.04 10.3 50.5 34 -4.7 23.5 10.34 0.407
17:16 1018 30.06 848 25.04 10.3 50.6 33 -5.1 22.9 10.33 0.407
17:17 1018 30.06 848 25.04 10.4 50.7 34 -4.6 23.7 10.36 0.408
17:18 1018 30.06 848 25.04 10.4 50.8 33 -5.2 22.7 10.45 0.411
17:19 1018 30.06 848 25.04 10.4 50.7 34 -4.8 23.4 10.51 0.414
17:20 1018 30.06 848 25.04 10.4 50.6 35 -4.6 23.8 10.47 0.412
17:21 1018 30.06 848 25.04 10.3 50.6 35 -4.5 23.8 10.43 0.411
17:22 1018 30.06 848 25.04 10.2 50.4 35 -4.5 23.9 10.37 0.408
17:23 1018 30.06 848 25.04 10.2 50.4 35 -4.6 23.8 10.29 0.405
17:24 1018 30.06 848 25.04 10 50.1 38 -3.5 25.8 10.12 0.398
17:25 1018 30.06 848 25.04 9.9 49.8 42 -2.3 27.8 9.99 0.393
17:26 1018 30.06 848 25.04 9.8 49.6 42 -2.5 27.5 9.84 0.387
17:27 1018 30.06 848 25.04 9.7 49.4 41 -2.8 26.9 9.74 0.383
17:28 1018 30.06 848 25.04 9.6 49.2 42 -2.8 26.9 9.67 0.381
17:29 1018 30.06 848 25.04 9.5 49 40 -3.6 25.6 9.57 0.377
17:30 1018 30.06 848 25.04 9.4 48.9 40 -3.4 26 9.5 0.374
17:31 1018 30.06 848 25.04 9.4 48.9 42 -2.8 27 9.52 0.375
17:32 1018 30.06 848 25.04 9.4 49 39 -3.9 25 9.53 0.375
17:33 1018 30.06 848 25.04 9.4 48.9 39 -3.8 25.2 9.56 0.376
17:34 1018 30.06 848 25.04 9.5 49 38 -4.2 24.5 9.61 0.378
17:35 1018 30.06 848 25.04 9.5 49.2 39 -3.8 25.2 9.7 0.382
17:36 1018 30.06 848 25.04 9.7 49.4 38 -3.8 25.2 9.84 0.387
17:37 1018 30.06 848 25.04 9.7 49.5 36 -4.4 24 9.93 0.391
17:38 1018 30.06 848 25.04 9.8 49.6 38 -3.8 25.2 10.03 0.395
17:39 1018 30.06 848 25.04 9.9 49.8 36 -4.5 23.8 10.04 0.395
17:40 1018 30.06 848 25.04 9.9 49.9 40 -3.1 26.4 10.12 0.398
17:41 1018 30.06 848 25.04 10 50 39 -3.4 25.8 10.2 0.402
17:42 1018 30.06 848 25.04 10 50.1 37 -4.1 24.7 10.19 0.401
17:43 1018 30.06 848 25.04 10.1 50.2 37 -4 24.8 10.21 0.402
17:44 1018 30.06 848 25.04 10.1 50.2 36 -4.4 24 10.26 0.404
17:45 1018 30.06 848 25.04 10.1 50.1 38 -3.5 25.7 10.32 0.406
17:46 1018 30.06 848 25.04 10.2 50.3 34 -4.9 23.1 10.41 0.41
17:47 1018 30.06 848 25.04 10.2 50.4 35 -4.6 23.7 10.4 0.409
17:48 1018 30.06 848 25.04 10.4 50.6 36 -3.9 24.9 10.5 0.413
17:49 1018 30.06 848 25.04 10.4 50.7 35 -4.5 23.9 10.53 0.415
17:50 1018 30.06 848 25.04 10.4 50.7 37 -3.6 25.5 10.49 0.413
17:51 1018 30.06 848 25.04 10.3 50.5 37 -3.7 25.3 10.44 0.411
17:52 1018 30.06 848 25.04 10.2 50.4 39 -3.1 26.3 10.41 0.41
17:53 1018 30.06 848 25.04 10.2 50.4 40 -2.9 26.9 10.46 0.412
17:54 1018 30.06 848 25.04 10.3 50.5 41 -2.4 27.7 10.46 0.412
17:55 1018 30.06 848 25.04 10.3 50.6 40 -2.7 27.2 10.5 0.413
17:56 1018 30.06 848 25.04 10.4 50.7 38 -3.3 26 10.53 0.415
17:57 1018 30.06 848 25.04 10.4 50.7 39 -3.1 26.5 10.63 0.419
17:58 1018 30.06 848 25.04 10.4 50.7 41 -2.4 27.8 10.64 0.419
17:59 1018 30.06 848 25.04 10.3 50.5 41 -2.4 27.7 10.6 0.417
18:00 1018 30.06 848 25.04 10.1 50.1 42 -2.2 28 10.45 0.411
18:01 1018 30.06 848 25.04 9.8 49.7 40 -3.2 26.2 10.21 0.402
18:02 1018 30.06 848 25.04 9.6 49.4 43 -2.3 27.9 10 0.394
18:03 1018 30.06 848 25.04 9.4 49 40 -3.5 25.7 9.8 0.386
18:04 1018 30.06 848 25.04 9.3 48.8 40 -3.5 25.8 9.64 0.38
18:05 1018 30.06 848 25.04 9.2 48.5 41 -3.3 26.1 9.52 0.375
18:06 1018 30.06 848 25.04 9.1 48.3 40 -3.9 24.9 9.39 0.37
18:07 1018 30.06 848 25.04 9 48.2 40 -4 24.8 9.26 0.365
18:08 1018 30.06 848 25.04 9 48.2 39 -4.3 24.3 9.23 0.363
18:09 1018 30.06 848 25.04 9.1 48.3 40 -3.7 25.3 9.28 0.365
18:10 1018 30.06 848 25.04 9.2 48.6 39 -3.8 25.1 9.39 0.37
18:11 1018 30.06 848 25.04 9.3 48.8 41 -3.1 26.4 9.51 0.374
18:12 1018 30.06 848 25.04 9.5 49 38 -4.1 24.6 9.64 0.38
18:13 1018 30.06 848 25.04 9.5 49 38 -4.1 24.6 9.62 0.379
18:14 1018 30.06 848 25.04 9.5 49 38 -4 24.8 9.64 0.38
18:15 1018 30.06 848 25.04 9.4 49 38 -4.2 24.4 9.64 0.38
18:16 1018 30.06 848 25.04 9.4 48.8 38 -4.3 24.2 9.67 0.381
18:17 1018 30.06 848 25.04 9.4 48.9 38 -4.2 24.5 9.68 0.381
18:18 1018 30.06 848 25.04 9.5 49 37 -4.5 23.9 9.72 0.383
18:19 1018 30.06 848 25.04 9.6 49.2 37 -4.4 24 9.79 0.385
18:20 1018 30.06 848 25.04 9.8 49.6 36 -4.4 24.1 9.95 0.392
18:21 1018 30.06 848 25.04 10 49.9 38 -3.8 25.1 10.14 0.399
18:22 1018 30.06 848 25.04 10.1 50.1 43 -2 28.4 10.28 0.405
18:23 1018 30.06 848 25.04 10.1 50.2 39 -3.1 26.4 10.38 0.409
18:24 1018 30.06 848 25.04 10 50 40 -3 26.6 10.3 0.406
18:25 1018 30.06 848 25.04 9.8 49.7 46 -1.3 29.6 10.25 0.404
18:26 1018 30.06 848 25.04 9.5 49.2 48 -1 30.1 9.96 0.392
18:27 1018 30.06 848 25.04 9.2 48.5 48 -1.1 30 9.61 0.378
18:28 1018 30.06 848 25.04 8.9 48 48 -1.6 29.1 9.32 0.367
18:29 1018 30.06 848 25.04 8.7 47.7 48 -1.6 29.1 9.11 0.359
18:30 1018 30.06 848 25.04 8.6 47.5 54 -0.2 31.6 8.99 0.354
18:31 1018 30.06 848 25.04 8.3 46.9 56 -0 32 8.74 0.344
18:32 1018 30.06 848 25.04 8 46.3 59 0.4 32.7 8.46 0.333
18:33 1018 30.06 848 25.04 7.7 45.8 62 0.8 33.4 8.15 0.321
18:34 1018 30.06 848 25.04 7.3 45.1 64 0.9 33.7 7.79 0.307
18:35 1018 30.06 848 25.04 6.9 44.4 67 1.1 34 7.39 0.291
18:36 1018 30.06 848 25.04 6.6 43.9 69 1.2 34.2 7.1 0.28
18:37 1018 30.06 848 25.04 6.4 43.4 70 1.4 34.5 6.875 0.271
18:38 1018 30.06 848 25.04 6.2 43.1 72 1.5 34.8 6.683 0.263
18:39 1018 30.06 848 25.04 6 42.7 73 1.5 34.8 6.503 0.256
18:40 1018 30.06 848 25.04 5.9 42.6 74 1.6 34.9 6.418 0.253
18:41 1018 30.06 848 25.04 5.8 42.4 75 1.6 34.9 6.289 0.248
18:42 1018 30.06 848 25.04 5.7 42.2 75 1.6 34.9 6.199 0.244
18:43 1018 30.06 848 25.04 5.6 42.2 76 1.7 35 6.092 0.24
18:44 1018 30.06 848 25.04 5.5 41.9 76 1.7 35.1 5.99 0.236
18:45 1018 30.06 848 25.04 5.4 41.7 77 1.6 35 5.85 0.23
18:46 1018 30.06 848 25.04 5.4 41.7 76 1.6 34.8 5.855 0.231
18:47 1018 30.06 848 25.04 5.4 41.8 76 1.5 34.7 5.851 0.23
18:48 1018 30.06 848 25.04 5.4 41.8 75 1.3 34.4 5.841 0.23
18:49 1018 30.06 848 25.04 5.4 41.7 74 1.2 34.1 5.801 0.228
18:50 1018 30.06 847 25.01 5.4 41.6 74 1.2 34.1 5.757 0.227
18:51 1018 30.06 848 25.04 5.3 41.5 74 1 33.8 5.662 0.223
18:52 1018 30.06 847 25.01 5.2 41.3 74 0.9 33.6 5.571 0.219
18:53 1018 30.06 848 25.04 5.1 41.1 74 0.9 33.6 5.504 0.217
18:54 1018 30.06 848 25.04 5 41 75 0.9 33.7 5.409 0.213
18:55 1018 30.06 848 25.04 4.9 40.8 76 1 33.8 5.319 0.209
18:56 1018 30.06 848 25.04 4.8 40.6 77 1.1 34 5.189 0.204
18:57 1018 30.06 848 25.04 4.6 40.3 78 1.1 34 5.014 0.197
18:58 1018 30.06 848 25.04 4.4 39.9 79 1.2 34.1 4.89 0.193
18:59 1018 30.06 848 25.04 4.3 39.7 80 1.2 34.1 4.749 0.187
19:00 1018 30.06 848 25.04 4.2 39.5 81 1.1 34 4.62 0.182
19:01 1018 30.06 848 25.04 4.1 39.3 81 1.1 33.9 4.518 0.178
19:02 1018 30.06 848 25.04 3.9 39.1 81 1 33.8 4.422 0.174
19:03 1018 30.06 848 25.04 3.9 38.9 81 0.9 33.6 4.287 0.169
19:04 1018 30.06 848 25.04 3.8 38.8 81 0.8 33.5 4.219 0.166
19:05 1018 30.06 848 25.04 3.7 38.7 81 0.8 33.4 4.135 0.163
19:06 1018 30.06 848 25.04 3.6 38.5 81 0.7 33.3 4.033 0.159
19:07 1018 30.06 848 25.04 3.5 38.3 81 0.6 33.1 3.914 0.154
19:08 1018 30.06 848 25.04 3.4 38.2 82 0.6 33.1 3.875 0.153
19:09 1018 30.06 848 25.04 3.4 38.1 82 0.5 32.9 3.785 0.149
19:10 1018 30.06 848 25.04 3.3 37.9 82 0.5 32.9 3.672 0.145
19:11 1018 30.06 848 25.04 3.2 37.7 83 0.5 32.9 3.593 0.141
19:12 1018 30.06 848 25.04 3.1 37.5 83 0.5 32.9 3.463 0.136
19:13 1018 30.06 848 25.04 2.9 37.3 84 0.5 32.8 3.361 0.132
19:14 1018 30.06 848 25.04 2.9 37.1 84 0.4 32.8 3.299 0.13
19:15 1018 30.06 848 25.04 2.8 37 85 0.4 32.8 3.231 0.127
19:16 1018 30.06 848 25.04 2.8 37.1 85 0.6 33.1 3.265 0.129
19:17 1018 30.06 848 25.04 2.9 37.3 85 0.6 33.2 3.379 0.133
19:18 1018 30.06 848 25.04 3 37.3 85 0.6 33.1 3.413 0.134
19:19 1018 30.06 848 25.04 3 37.3 85 0.6 33.1 3.401 0.134
19:20 1018 30.06 848 25.04 2.9 37.3 85 0.6 33.1 3.356 0.132
19:21 1018 30.06 848 25.04 2.9 37.1 85 0.5 32.9 3.3 0.13
19:22 1018 30.06 848 25.04 2.8 37.1 84 0.5 32.8 3.249 0.128
19:23 1018 30.06 848 25.04 2.8 37 84 0.4 32.7 3.181 0.125
19:24 1018 30.06 848 25.04 2.7 36.8 84 0.3 32.5 3.113 0.123
19:25 1018 30.06 848 25.04 2.6 36.7 84 0.2 32.4 3.034 0.119
19:26 1018 30.06 848 25.04 2.6 36.7 84 0.2 32.4 3.036 0.12
19:27 1018 30.06 848 25.04 2.6 36.7 84 0.2 32.3 3.024 0.119
19:28 1018 30.06 848 25.04 2.7 36.8 84 0.2 32.3 3.042 0.12
19:29 1018 30.06 848 25.04 2.7 36.8 84 0.2 32.3 3.037 0.12
19:30 1018 30.06 848 25.04 2.7 36.8 84 0.2 32.4 3.054 0.12
19:31 1018 30.06 848 25.04 2.7 36.9 84 0.2 32.4 3.06 0.12
19:32 1018 30.06 848 25.04 2.7 36.9 83 0.1 32.2 3.045 0.12
19:33 1018 30.06 848 25.04 2.7 36.9 83 0.1 32.2 3.051 0.12
19:34 1018 30.06 848 25.04 2.7 36.8 83 0.1 32.1 3.012 0.119
19:35 1018 30.06 848 25.04 2.6 36.8 83 0.1 32.2 3.002 0.118
19:36 1018 30.06 848 25.04 2.6 36.8 83 0.1 32.1 2.985 0.118
19:37 1018 30.06 848 25.04 2.6 36.7 83 0 32.1 3.003 0.118
19:38 1018 30.06 848 25.04 2.6 36.7 83 0 32 2.964 0.117
19:39 1018 30.06 848 25.04 2.6 36.7 83 -0 31.9 2.975 0.117
19:40 1018 30.06 848 25.04 2.5 36.6 84 0 32.1 2.908 0.114
19:41 1018 30.06 848 25.04 2.5 36.6 84 0.1 32.2 2.931 0.115
19:42 1018 30.06 848 25.04 2.6 36.7 83 0.1 32.1 2.988 0.118
19:43 1018 30.06 848 25.04 2.7 36.8 82 -0 32 3.017 0.119
19:44 1018 30.06 848 25.04 2.7 36.9 83 0 32.1 3.062 0.121
19:45 1018 30.06 848 25.04 2.8 37 82 -0 32 3.091 0.122
19:46 1018 30.06 848 25.04 2.9 37.1 81 -0 32 3.119 0.123
19:47 1018 30.06 848 25.04 2.9 37.2 81 -0 32 3.131 0.123
19:48 1018 30.06 848 25.04 2.8 37.1 81 -0.1 31.8 3.12 0.123
19:49 1018 30.06 848 25.04 2.8 37 81 -0.2 31.7 3.075 0.121
19:50 1018 30.06 848 25.04 2.7 36.9 81 -0.2 31.6 3.047 0.12
19:51 1018 30.06 848 25.04 2.7 36.8 82 -0.2 31.7 2.985 0.118
19:52 1018 30.06 848 25.04 2.6 36.7 82 -0.2 31.7 2.945 0.116
19:53 1018 30.06 847 25.01 2.6 36.7 82 -0.2 31.6 2.923 0.115
19:54 1018 30.06 847 25.01 2.5 36.4 82 -0.3 31.5 2.838 0.112
19:55 1018 30.06 847 25.01 2.4 36.2 83 -0.3 31.5 2.765 0.109
19:56 1018 30.06 847 25.01 2.3 36.1 83 -0.2 31.6 2.675 0.105
19:57 1018 30.06 847 25.01 2.2 36 84 -0.3 31.5 2.612 0.103
19:58 1018 30.06 847 25.01 2.2 35.9 84 -0.3 31.5 2.58 0.102
19:59 1018 30.06 848 25.04 2.1 35.8 84 -0.3 31.5 2.529 0.1
20:00 1018 30.06 847 25.01 2.1 35.8 84 -0.3 31.5 2.529 0.1
20:01 1018 30.06 848 25.04 2.2 35.9 84 -0.2 31.6 2.565 0.101
20:02 1018 30.06 848 25.04 2.2 36 84 -0.2 31.6 2.587 0.102
20:03 1018 30.06 848 25.04 2.2 36 84 -0.2 31.6 2.582 0.102
20:04 1018 30.06 848 25.04 2.2 36 84 -0.2 31.6 2.6 0.102
20:05 1018 30.06 848 25.04 2.3 36.1 84 -0.1 31.7 2.622 0.103
20:06 1018 30.06 848 25.04 2.2 36 84 -0.2 31.7 2.622 0.103
20:07 1018 30.06 848 25.04 2.2 36 85 -0.1 31.8 2.595 0.102
20:08 1018 30.06 848 25.04 2.2 36 85 -0.1 31.9 2.64 0.104
20:09 1018 30.06 848 25.04 2.3 36.2 84 -0 32 2.754 0.108
20:10 1018 30.06 848 25.04 2.6 36.6 83 0 32.1 2.908 0.114
20:11 1018 30.06 848 25.04 2.7 36.9 84 0.4 32.6 3.016 0.119
20:12 1018 30.06 848 25.04 2.9 37.2 84 0.5 32.9 3.18 0.125
20:13 1018 30.06 848 25.04 2.9 37.2 84 0.6 33 3.255 0.128
20:14 1018 30.06 848 25.04 2.9 37.3 85 0.7 33.2 3.334 0.131
20:15 1018 30.06 848 25.04 3 37.4 85 0.8 33.4 3.34 0.131
20:16 1018 30.06 848 25.04 3 37.4 85 0.8 33.4 3.358 0.132
20:17 1018 30.06 848 25.04 3 37.3 86 0.8 33.4 3.336 0.131
20:18 1018 30.06 848 25.04 3 37.4 86 0.9 33.6 3.359 0.132
20:19 1018 30.06 848 25.04 3 37.4 86 0.9 33.6 3.376 0.133
20:20 1018 30.06 848 25.04 3 37.4 86 0.9 33.6 3.422 0.135
20:21 1018 30.06 848 25.04 3 37.4 86 0.9 33.7 3.394 0.134
20:22 1018 30.06 848 25.04 3.1 37.5 86 1 33.7 3.468 0.137
20:23 1018 30.06 848 25.04 3.2 37.8 86 1 33.8 3.507 0.138
20:24 1018 30.06 848 25.04 3.3 37.9 85 1 33.8 3.604 0.142
20:25 1018 30.06 848 25.04 3.4 38 84 1 33.7 3.672 0.145
20:26 1018 30.06 848 25.04 3.4 38.2 84 0.9 33.7 3.774 0.149
20:27 1018 30.06 848 25.04 3.5 38.4 83 0.9 33.7 3.853 0.152
20:28 1018 30.06 848 25.04 3.6 38.5 82 0.9 33.6 3.905 0.154
20:29 1018 30.06 848 25.04 3.7 38.6 82 0.9 33.6 3.95 0.156
20:30 1018 30.06 848 25.04 3.7 38.7 82 0.8 33.5 3.995 0.157
20:31 1018 30.06 848 25.04 3.8 38.8 81 0.9 33.5 4.03 0.159
20:32 1019 30.09 848 25.04 3.7 38.7 82 0.9 33.5 4.013 0.158
20:33 1019 30.09 848 25.04 3.7 38.6 82 0.8 33.4 3.985 0.157
20:34 1019 30.09 848 25.04 3.6 38.5 82 0.8 33.4 3.939 0.155
20:35 1019 30.09 848 25.04 3.6 38.5 82 0.7 33.3 3.951 0.156
20:36 1019 30.09 848 25.04 3.6 38.4 82 0.7 33.3 3.911 0.154
20:37 1018 30.06 848 25.04 3.5 38.2 82 0.6 33.2 3.827 0.151
20:38 1018 30.06 848 25.04 3.4 38.2 82 0.7 33.2 3.776 0.149
20:39 1019 30.09 848 25.04 3.4 38.1 82 0.6 33.1 3.759 0.148
20:40 1019 30.09 848 25.04 3.4 38.1 82 0.6 33.1 3.708 0.146
20:41 1019 30.09 848 25.04 3.3 38 82 0.6 33 3.697 0.146
20:42 1019 30.09 848 25.04 3.3 37.9 82 0.5 32.9 3.623 0.143
20:43 1019 30.09 848 25.04 3.2 37.7 82 0.5 32.8 3.595 0.142
20:44 1019 30.09 848 25.04 3.2 37.7 82 0.5 32.9 3.561 0.14
20:45 1019 30.09 848 25.04 3.1 37.6 83 0.4 32.8 3.522 0.139
20:46 1019 30.09 848 25.04 3 37.4 83 0.4 32.6 3.42 0.135
20:47 1019 30.09 848 25.04 2.8 37.1 84 0.3 32.6 3.312 0.13
20:48 1019 30.09 848 25.04 2.7 36.9 85 0.4 32.7 3.182 0.125
20:49 1019 30.09 848 25.04 2.6 36.7 85 0.3 32.6 3.064 0.121
20:50 1019 30.09 848 25.04 2.6 36.7 86 0.4 32.8 3.024 0.119
20:51 1019 30.09 848 25.04 2.6 36.7 86 0.5 32.9 3.041 0.12
20:52 1019 30.09 848 25.04 2.6 36.8 86 0.5 32.9 3.12 0.123
20:53 1019 30.09 848 25.04 2.7 36.9 85 0.5 32.9 3.115 0.123
20:54 1019 30.09 848 25.04 2.7 36.9 86 0.6 33 3.12 0.123
20:55 1019 30.09 848 25.04 2.8 37 85 0.5 33 3.183 0.125
20:56 1019 30.09 848 25.04 3 37.3 84 0.5 32.9 3.335 0.131
20:57 1018 30.06 848 25.04 3.2 37.8 83 0.6 33 3.539 0.139
20:58 1019 30.09 848 25.04 3.4 38.1 82 0.6 33 3.692 0.145
20:59 1018 30.06 848 25.04 3.5 38.3 81 0.6 33 3.805 0.15
21:00 1018 30.06 848 25.04 3.5 38.4 81 0.6 33.1 3.873 0.152
21:01 1018 30.06 848 25.04 3.5 38.4 81 0.6 33.2 3.839 0.151
21:02 1018 30.06 848 25.04 3.6 38.4 81 0.6 33.2 3.839 0.151
21:03 1019 30.09 848 25.04 3.5 38.3 81 0.6 33.1 3.879 0.153
21:04 1019 30.09 848 25.04 3.5 38.4 81 0.6 33.2 3.89 0.153
21:05 1019 30.09 848 25.04 3.5 38.3 81 0.6 33.2 3.879 0.153
21:06 1019 30.09 848 25.04 3.5 38.3 81 0.6 33.1 3.85 0.152
21:07 1019 30.09 848 25.04 3.5 38.3 81 0.6 33.1 3.856 0.152
21:08 1019 30.09 848 25.04 3.5 38.3 81 0.5 33 3.862 0.152
21:09 1019 30.09 848 25.04 3.5 38.3 81 0.5 33 3.879 0.153
21:10 1019 30.09 848 25.04 3.5 38.3 80 0.4 32.8 3.839 0.151
21:11 1019 30.09 848 25.04 3.5 38.3 81 0.5 32.9 3.845 0.151
21:12 1019 30.09 848 25.04 3.5 38.2 81 0.6 33 3.794 0.149
21:13 1019 30.09 848 25.04 3.4 38.1 82 0.6 33 3.782 0.149
21:14 1019 30.09 848 25.04 3.3 38 82 0.5 33 3.737 0.147
21:15 1019 30.09 848 25.04 3.3 37.9 82 0.5 32.9 3.692 0.145
21:16 1019 30.09 848 25.04 3.3 37.9 83 0.6 33.1 3.664 0.144
21:17 1019 30.09 848 25.04 3.3 37.9 82 0.6 33 3.665 0.144
21:18 1019 30.09 848 25.04 3.3 37.9 82 0.5 32.9 3.626 0.143
21:19 1019 30.09 848 25.04 3.2 37.8 82 0.5 33 3.637 0.143
21:20 1019 30.09 848 25.04 3.2 37.8 83 0.6 33.2 3.638 0.143
21:21 1019 30.09 848 25.04 3.2 37.8 84 0.7 33.2 3.593 0.141
21:22 1019 30.09 848 25.04 3.2 37.7 84 0.7 33.2 3.576 0.141
21:23 1019 30.09 848 25.04 3.1 37.6 83 0.6 33.1 3.52 0.139
21:24 1019 30.09 848 25.04 3.1 37.6 83 0.5 33 3.481 0.137
21:25 1019 30.09 848 25.04 3.1 37.6 83 0.5 32.8 3.492 0.137
21:26 1019 30.09 848 25.04 3.1 37.6 83 0.5 32.8 3.498 0.138
21:27 1019 30.09 848 25.04 3.1 37.6 82 0.2 32.4 3.498 0.138
21:28 1019 30.09 848 25.04 3.2 37.7 80 0.1 32.2 3.498 0.138
21:29 1018 30.06 848 25.04 3.3 37.9 80 0.1 32.1 3.533 0.139
21:30 1018 30.06 848 25.04 3.3 38 79 0 32.1 3.635 0.143
21:31 1018 30.06 848 25.04 3.4 38.1 78 -0 32 3.669 0.144
21:32 1018 30.06 848 25.04 3.5 38.2 78 0 32.1 3.748 0.148
21:33 1018 30.06 848 25.04 3.5 38.3 78 0.1 32.2 3.799 0.15
21:34 1018 30.06 848 25.04 3.5 38.3 78 0.1 32.2 3.788 0.149
21:35 1018 30.06 848 25.04 3.5 38.3 78 0.1 32.2 3.822 0.15
21:36 1018 30.06 848 25.04 3.5 38.4 79 0.2 32.3 3.822 0.15
21:37 1018 30.06 848 25.04 3.5 38.3 78 0.1 32.1 3.828 0.151
21:38 1018 30.06 848 25.04 3.5 38.4 78 0.1 32.1 3.862 0.152
21:39 1018 30.06 848 25.04 3.6 38.5 78 0.1 32.1 3.874 0.153
21:40 1018 30.06 848 25.04 3.6 38.5 77 0 32 3.936 0.155
21:41 1018 30.06 848 25.04 3.6 38.6 78 0.1 32.2 3.964 0.156
21:42 1018 30.06 848 25.04 3.6 38.5 77 0 32.1 3.93 0.155
21:43 1018 30.06 848 25.04 3.6 38.5 77 0 32.1 3.976 0.157
21:44 1018 30.06 848 25.04 3.6 38.5 78 0.1 32.1 3.919 0.154
21:45 1018 30.06 848 25.04 3.6 38.4 78 0 32.1 3.914 0.154
21:46 1018 30.06 848 25.04 3.6 38.5 78 0.1 32.2 3.891 0.153
21:47 1018 30.06 848 25.04 3.5 38.4 79 0.1 32.3 3.931 0.155
21:48 1018 30.06 848 25.04 3.5 38.4 79 0.2 32.4 3.908 0.154
21:49 1018 30.06 848 25.04 3.5 38.3 79 0.2 32.4 3.88 0.153
21:50 1018 30.06 848 25.04 3.5 38.3 78 -0 31.9 3.925 0.155
21:51 1018 30.06 848 25.04 3.7 38.6 76 -0.1 31.9 4.027 0.159
21:52 1018 30.06 848 25.04 3.8 38.8 77 0.1 32.2 4.084 0.161
21:53 1018 30.06 848 25.04 3.7 38.6 78 0.3 32.5 4.095 0.161
21:54 1018 30.06 848 25.04 3.5 38.3 80 0.3 32.6 3.942 0.155
21:55 1018 30.06 848 25.04 3.3 38 81 0.4 32.6 3.795 0.149
21:56 1018 30.06 848 25.04 3.2 37.7 82 0.4 32.7 3.648 0.144
21:57 1018 30.06 848 25.04 3.1 37.6 83 0.4 32.8 3.586 0.141
21:58 1018 30.06 848 25.04 3 37.3 83 0.4 32.7 3.444 0.136
21:59 1018 30.06 848 25.04 2.9 37.2 84 0.4 32.7 3.354 0.132
22:00 1018 30.06 848 25.04 2.8 37.1 84 0.4 32.7 3.286 0.129
22:01 1018 30.06 848 25.04 2.8 37 84 0.4 32.6 3.224 0.127
22:02 1018 30.06 848 25.04 2.8 37 84 0.3 32.5 3.207 0.126
22:03 1018 30.06 848 25.04 2.8 37 84 0.3 32.5 3.19 0.126
22:04 1018 30.06 848 25.04 2.8 37.1 83 0.3 32.5 3.207 0.126
22:05 1018 30.06 848 25.04 2.8 37.1 83 0.3 32.5 3.235 0.127
22:06 1018 30.06 848 25.04 2.8 37.1 83 0.3 32.5 3.23 0.127
22:07 1018 30.06 848 25.04 2.9 37.2 83 0.2 32.4 3.23 0.127
22:08 1018 30.06 847 25.01 2.9 37.3 83 0.3 32.5 3.264 0.129
22:09 1018 30.06 847 25.01 3 37.3 82 0.2 32.4 3.32 0.131
22:10 1018 30.06 847 25.01 3 37.4 82 0.2 32.4 3.36 0.132
22:11 1018 30.06 847 25.01 3 37.4 82 0.2 32.4 3.371 0.133
22:12 1018 30.06 847 25.01 3 37.4 81 0.1 32.2 3.365 0.132
22:13 1018 30.06 847 25.01 3 37.5 81 0.1 32.2 3.388 0.133
22:14 1018 30.06 847 25.01 3.1 37.6 80 0 32 3.416 0.134
22:15 1018 30.06 847 25.01 3.2 37.8 79 -0 32 3.513 0.138
22:16 1018 30.06 847 25.01 3.3 37.9 79 -0 32 3.569 0.141
22:17 1018 30.06 847 25.01 3.3 37.9 80 0.1 32.2 3.581 0.141
22:18 1018 30.06 847 25.01 3.2 37.8 80 0.2 32.3 3.547 0.14
22:19 1018 30.06 847 25.01 3.2 37.7 81 0.2 32.4 3.52 0.139
22:20 1018 30.06 847 25.01 3.1 37.7 82 0.3 32.5 3.508 0.138
22:21 1018 30.06 847 25.01 3.1 37.5 82 0.3 32.6 3.424 0.135
22:22 1018 30.06 847 25.01 3 37.4 83 0.3 32.6 3.372 0.133
22:23 1018 30.06 847 25.01 2.9 37.3 83 0.3 32.5 3.361 0.132
22:24 1018 30.06 847 25.01 2.9 37.3 83 0.3 32.6 3.321 0.131
22:25 1018 30.06 847 25.01 2.9 37.2 83 0.3 32.5 3.304 0.13
22:26 1018 30.06 847 25.01 2.9 37.2 83 0.4 32.6 3.304 0.13
22:27 1018 30.06 847 25.01 2.9 37.2 83 0.3 32.6 3.276 0.129
22:28 1018 30.06 847 25.01 2.9 37.2 83 0.3 32.6 3.27 0.129
22:29 1018 30.06 847 25.01 2.9 37.2 83 0.3 32.6 3.253 0.128
22:30 1018 30.06 847 25.01 2.9 37.2 83 0.3 32.5 3.237 0.127
22:31 1018 30.06 847 25.01 2.9 37.2 83 0.3 32.5 3.266 0.129
22:32 1018 30.06 847 25.01 2.9 37.3 82 0.2 32.4 3.3 0.13
22:33 1018 30.06 847 25.01 3 37.4 82 0.3 32.6 3.385 0.133
22:34 1018 30.06 847 25.01 3.1 37.6 82 0.3 32.5 3.448 0.136
22:35 1018 30.06 847 25.01 3.2 37.8 81 0.3 32.5 3.544 0.14
22:36 1018 30.06 847 25.01 3.3 38 80 0.2 32.4 3.68 0.145
22:37 1018 30.06 847 25.01 3.4 38.2 80 0.3 32.6 3.732 0.147
22:38 1018 30.06 847 25.01 3.4 38.2 80 0.4 32.7 3.754 0.148
22:39 1018 30.06 847 25.01 3.4 38.1 80 0.3 32.5 3.755 0.148
22:40 1018 30.06 847 25.01 3.4 38.2 80 0.3 32.6 3.738 0.147
22:41 1018 30.06 847 25.01 3.4 38.1 81 0.4 32.7 3.727 0.147
22:42 1018 30.06 847 25.01 3.3 38 81 0.4 32.7 3.693 0.145
22:43 1018 30.06 847 25.01 3.2 37.8 82 0.4 32.7 3.62 0.143
22:44 1018 30.06 847 25.01 3.1 37.7 82 0.4 32.6 3.524 0.139
22:45 1018 30.06 847 25.01 3.1 37.5 82 0.3 32.5 3.49 0.137
22:46 1018 30.06 847 25.01 3.1 37.5 82 0.3 32.6 3.462 0.136
22:47 1018 30.06 847 25.01 3 37.4 82 0.2 32.4 3.45 0.136
22:48 1018 30.06 847 25.01 3 37.5 81 0.1 32.2 3.451 0.136
22:49 1018 30.06 847 25.01 3.1 37.6 81 0.1 32.2 3.473 0.137
22:50 1018 30.06 847 25.01 3.1 37.6 81 0.1 32.3 3.462 0.136
22:51 1018 30.06 847 25.01 3.1 37.6 81 0.2 32.3 3.513 0.138
22:52 1018 30.06 847 25.01 3.1 37.6 81 0.1 32.3 3.496 0.138
22:53 1018 30.06 847 25.01 3.2 37.7 81 0.2 32.4 3.53 0.139
22:54 1018 30.06 847 25.01 3.2 37.8 81 0.2 32.4 3.536 0.139
22:55 1018 30.06 847 25.01 3.2 37.7 81 0.2 32.3 3.587 0.141
22:56 1018 30.06 847 25.01 3.2 37.8 80 0.1 32.2 3.604 0.142
22:57 1018 30.06 847 25.01 3.3 37.9 79 -0 32 3.633 0.143
22:58 1018 30.06 847 25.01 3.4 38.1 78 -0.1 31.9 3.746 0.147
22:59 1018 30.06 847 25.01 3.5 38.3 78 0 32 3.825 0.151
23:00 1018 30.06 847 25.01 3.6 38.4 79 0.2 32.4 3.87 0.152
23:01 1018 30.06 847 25.01 3.5 38.3 80 0.3 32.5 3.814 0.15
23:02 1018 30.06 847 25.01 3.4 38.1 80 0.3 32.5 3.752 0.148
23:03 1018 30.06 847 25.01 3.3 37.9 81 0.2 32.4 3.661 0.144
23:04 1018 30.06 847 25.01 3.2 37.8 81 0.2 32.4 3.638 0.143
23:05 1018 30.06 847 25.01 3.1 37.7 81 0.3 32.5 3.582 0.141
23:06 1018 30.06 847 25.01 3.1 37.6 81 0.2 32.4 3.565 0.14
23:07 1018 30.06 847 25.01 3.2 37.7 81 0.2 32.4 3.542 0.139
23:08 1018 30.06 847 25.01 3.2 37.7 81 0.2 32.4 3.537 0.139
23:09 1018 30.06 847 25.01 3.2 37.7 80 0.1 32.1 3.565 0.14
23:10 1018 30.06 847 25.01 3.2 37.8 80 0 32.1 3.622 0.143
23:11 1018 30.06 847 25.01 3.3 37.9 79 0 32 3.678 0.145
23:12 1018 30.06 847 25.01 3.4 38 78 -0.1 31.8 3.69 0.145
23:13 1018 30.06 847 25.01 3.4 38.2 78 -0.1 31.9 3.752 0.148
23:14 1018 30.06 847 25.01 3.4 38.2 78 -0.1 31.9 3.758 0.148
23:15 1018 30.06 847 25.01 3.4 38.1 78 -0.1 31.8 3.741 0.147
23:16 1018 30.06 847 25.01 3.4 38.2 78 -0.1 31.8 3.786 0.149
23:17 1018 30.06 847 25.01 3.4 38.2 78 -0.1 31.8 3.741 0.147
23:18 1018 30.06 847 25.01 3.4 38.1 78 -0.1 31.8 3.712 0.146
23:19 1018 30.06 847 25.01 3.4 38 78 -0.2 31.6 3.701 0.146
23:20 1018 30.06 847 25.01 3.4 38 78 -0.2 31.7 3.678 0.145
23:21 1018 30.06 847 25.01 3.3 37.9 78 -0.2 31.6 3.684 0.145
23:22 1018 30.06 847 25.01 3.2 37.8 78 -0.2 31.6 3.627 0.143
23:23 1018 30.06 847 25.01 3.2 37.7 78 -0.2 31.6 3.577 0.141
23:24 1018 30.06 847 25.01 3.1 37.6 79 -0.3 31.5 3.497 0.138
23:25 1018 30.06 847 25.01 3.1 37.6 78 -0.3 31.5 3.452 0.136
23:26 1018 30.06 847 25.01 3.1 37.5 79 -0.3 31.4 3.429 0.135
23:27 1018 30.06 847 25.01 3 37.4 79 -0.3 31.4 3.401 0.134
23:28 1018 30.06 847 25.01 3 37.4 79 -0.3 31.4 3.401 0.134
23:29 1018 30.06 847 25.01 3 37.4 79 -0.3 31.4 3.39 0.133
23:30 1018 30.06 847 25.01 3 37.4 79 -0.3 31.4 3.396 0.134
23:31 1018 30.06 847 25.01 3 37.3 79 -0.3 31.4 3.35 0.132
23:32 1018 30.06 847 25.01 2.9 37.3 79 -0.3 31.4 3.305 0.13
23:33 1018 30.06 847 25.01 2.8 37.1 80 -0.3 31.4 3.226 0.127
23:34 1018 30.06 847 25.01 2.8 37.1 80 -0.3 31.4 3.147 0.124
23:35 1018 30.06 847 25.01 2.7 36.8 80 -0.4 31.3 3.09 0.122
23:36 1018 30.06 847 25.01 2.7 36.8 81 -0.3 31.4 3.039 0.12
23:37 1018 30.06 847 25.01 2.7 36.8 81 -0.2 31.6 3.056 0.12
23:38 1018 30.06 847 25.01 2.7 36.8 81 -0.3 31.5 3.067 0.121
23:39 1018 30.06 847 25.01 2.7 36.9 81 -0.3 31.5 3.124 0.123
23:40 1018 30.06 847 25.01 2.8 37.1 80 -0.3 31.4 3.226 0.127
23:41 1018 30.06 847 25.01 3 37.4 79 -0.3 31.5 3.35 0.132
23:42 1018 30.06 847 25.01 3.1 37.5 79 -0.2 31.6 3.418 0.135
23:43 1018 30.06 847 25.01 3.1 37.5 79 -0.1 31.8 3.441 0.135
23:44 1018 30.06 847 25.01 3 37.4 80 -0.1 31.8 3.35 0.132
23:45 1018 30.06 847 25.01 2.9 37.2 81 -0.1 31.7 3.265 0.129
23:46 1018 30.06 847 25.01 2.8 37 81 -0.1 31.8 3.203 0.126
23:47 1018 30.06 847 25.01 2.6 36.8 82 -0.2 31.7 3.05 0.12
23:48 1018 30.06 847 25.01 2.5 36.6 82 -0.2 31.7 2.96 0.117
23:49 1018 30.06 847 25.01 2.5 36.5 83 -0.1 31.8 2.892 0.114
23:50 1018 30.06 847 25.01 2.4 36.3 83 -0.2 31.6 2.824 0.111
23:51 1018 30.06 847 25.01 2.3 36.2 84 -0.2 31.7 2.733 0.108
23:52 1018 30.06 847 25.01 2.2 36 84 -0.2 31.6 2.711 0.107
23:53 1018 30.06 847 25.01 2.3 36.1 84 -0.2 31.6 2.671 0.105
23:54 1018 30.06 847 25.01 2.3 36.1 84 -0.2 31.6 2.682 0.106
23:55 1018 30.06 847 25.01 2.3 36.1 84 -0.2 31.7 2.649 0.104
23:56 1018 30.06 847 25.01 2.3 36.1 84 -0.2 31.6 2.66 0.105
23:57 1018 30.06 847 25.01 2.3 36.1 83 -0.3 31.5 2.666 0.105
23:58 1018 30.06 847 25.01 2.3 36.1 83 -0.3 31.5 2.677 0.105
23:59 1018 30.06 847 25.01 2.3 36.1 83 -0.3 31.4 2.688 0.106
24:00 1018 30.06 847 25.01 2.3 36.2 82 -0.4 31.3 2.705 0.106